<?xml version="1.0" encoding="utf-8"?>
<gpx xmlns:xsi="http://www.w3.org/2001/XMLSchema-instance" xmlns:xsd="http://www.w3.org/2001/XMLSchema" version="1.1" creator="Shapelink.com" xmlns="http://www.topografix.com/GPX/1/1" xmlns:gpxtpx="http://www.garmin.com/xmlschemas/TrackPointExtension/v1">
  <metadata>
    <name>Radfahren 28.13 km, 2011-06-01</name>
    <desc></desc>
    <author><name>Jessica Ternander</name></author> 
    <time>2011-06-01T15:49:25Z</time>
  </metadata>
  <trk>
    <name>Radfahren 28.13 km, 2011-06-01</name>
    <trkseg>
      <trkpt lat="59.3005761" lon="18.5006705">
        <ele>23.6896</ele>
        <time>2011-06-01T15:49:25Z</time>
      </trkpt>
      <trkpt lat="59.3006827" lon="18.5000851">
        <ele>23.209</ele>
        <time>2011-06-01T15:49:31Z</time>
      </trkpt>
      <trkpt lat="59.3008225" lon="18.4993542">
        <ele>23.209</ele>
        <time>2011-06-01T15:49:38Z</time>
      </trkpt>
      <trkpt lat="59.3009516" lon="18.4984802">
        <ele>18.8831</ele>
        <time>2011-06-01T15:49:45Z</time>
      </trkpt>
      <trkpt lat="59.3009703" lon="18.4983556">
        <ele>18.4023</ele>
        <time>2011-06-01T15:49:46Z</time>
      </trkpt>
      <trkpt lat="59.3011283" lon="18.4978691">
        <ele>15.5184</ele>
        <time>2011-06-01T15:49:51Z</time>
      </trkpt>
      <trkpt lat="59.3011734" lon="18.4977959">
        <ele>14.557</ele>
        <time>2011-06-01T15:49:52Z</time>
      </trkpt>
      <trkpt lat="59.3013555" lon="18.4975389">
        <ele>12.6344</ele>
        <time>2011-06-01T15:49:56Z</time>
      </trkpt>
      <trkpt lat="59.301471" lon="18.4975614">
        <ele>12.1538</ele>
        <time>2011-06-01T15:50:00Z</time>
      </trkpt>
      <trkpt lat="59.3015091" lon="18.4976926">
        <ele>11.1925</ele>
        <time>2011-06-01T15:50:02Z</time>
      </trkpt>
      <trkpt lat="59.3017093" lon="18.4984162">
        <ele>11.1925</ele>
        <time>2011-06-01T15:50:11Z</time>
      </trkpt>
      <trkpt lat="59.3017307" lon="18.4985058">
        <ele>10.7118</ele>
        <time>2011-06-01T15:50:12Z</time>
      </trkpt>
      <trkpt lat="59.3017763" lon="18.4988852">
        <ele>9.75061</ele>
        <time>2011-06-01T15:50:16Z</time>
      </trkpt>
      <trkpt lat="59.3018448" lon="18.4993977">
        <ele>9.2699</ele>
        <time>2011-06-01T15:50:21Z</time>
      </trkpt>
      <trkpt lat="59.302069" lon="18.5002895">
        <ele>6.86646</ele>
        <time>2011-06-01T15:50:29Z</time>
      </trkpt>
      <trkpt lat="59.3023416" lon="18.5012652">
        <ele>4.46326</ele>
        <time>2011-06-01T15:50:38Z</time>
      </trkpt>
      <trkpt lat="59.3024797" lon="18.5017954">
        <ele>4.94385</ele>
        <time>2011-06-01T15:50:43Z</time>
      </trkpt>
      <trkpt lat="59.3026508" lon="18.5021094">
        <ele>5.42456</ele>
        <time>2011-06-01T15:50:48Z</time>
      </trkpt>
      <trkpt lat="59.3027129" lon="18.5020576">
        <ele>5.42456</ele>
        <time>2011-06-01T15:50:51Z</time>
      </trkpt>
      <trkpt lat="59.3027305" lon="18.5019687">
        <ele>5.42456</ele>
        <time>2011-06-01T15:50:53Z</time>
      </trkpt>
      <trkpt lat="59.302779" lon="18.5016365">
        <ele>5.90527</ele>
        <time>2011-06-01T15:51:00Z</time>
      </trkpt>
      <trkpt lat="59.302827" lon="18.5013647">
        <ele>4.94385</ele>
        <time>2011-06-01T15:51:06Z</time>
      </trkpt>
      <trkpt lat="59.3028885" lon="18.5009626">
        <ele>3.50195</ele>
        <time>2011-06-01T15:51:12Z</time>
      </trkpt>
      <trkpt lat="59.3029592" lon="18.5004363">
        <ele>1.57935</ele>
        <time>2011-06-01T15:51:17Z</time>
      </trkpt>
      <trkpt lat="59.3030618" lon="18.4997375">
        <ele>0</ele>
        <time>2011-06-01T15:51:22Z</time>
      </trkpt>
      <trkpt lat="59.3031921" lon="18.498947">
        <ele>0</ele>
        <time>2011-06-01T15:51:27Z</time>
      </trkpt>
      <trkpt lat="59.3033672" lon="18.4976509">
        <ele>0</ele>
        <time>2011-06-01T15:51:35Z</time>
      </trkpt>
      <trkpt lat="59.3035371" lon="18.4965005">
        <ele>0</ele>
        <time>2011-06-01T15:51:43Z</time>
      </trkpt>
      <trkpt lat="59.3036894" lon="18.4953488">
        <ele>0</ele>
        <time>2011-06-01T15:51:52Z</time>
      </trkpt>
      <trkpt lat="59.3038913" lon="18.4945598">
        <ele>0</ele>
        <time>2011-06-01T15:51:59Z</time>
      </trkpt>
      <trkpt lat="59.3041053" lon="18.4938094">
        <ele>0</ele>
        <time>2011-06-01T15:52:06Z</time>
      </trkpt>
      <trkpt lat="59.3042844" lon="18.4931757">
        <ele>0</ele>
        <time>2011-06-01T15:52:12Z</time>
      </trkpt>
      <trkpt lat="59.3045051" lon="18.4920669">
        <ele>0</ele>
        <time>2011-06-01T15:52:21Z</time>
      </trkpt>
      <trkpt lat="59.3046107" lon="18.4911835">
        <ele>0</ele>
        <time>2011-06-01T15:52:28Z</time>
      </trkpt>
      <trkpt lat="59.3047138" lon="18.4898627">
        <ele>0</ele>
        <time>2011-06-01T15:52:39Z</time>
      </trkpt>
      <trkpt lat="59.304755" lon="18.4892023">
        <ele>1.09863</ele>
        <time>2011-06-01T15:52:45Z</time>
      </trkpt>
      <trkpt lat="59.3047916" lon="18.4880885">
        <ele>3.50195</ele>
        <time>2011-06-01T15:52:55Z</time>
      </trkpt>
      <trkpt lat="59.3047963" lon="18.4879792">
        <ele>3.50195</ele>
        <time>2011-06-01T15:52:56Z</time>
      </trkpt>
      <trkpt lat="59.3047679" lon="18.4873197">
        <ele>5.42456</ele>
        <time>2011-06-01T15:53:02Z</time>
      </trkpt>
      <trkpt lat="59.3047897" lon="18.4862548">
        <ele>3.98267</ele>
        <time>2011-06-01T15:53:11Z</time>
      </trkpt>
      <trkpt lat="59.3048371" lon="18.4852292">
        <ele>1.57935</ele>
        <time>2011-06-01T15:53:19Z</time>
      </trkpt>
      <trkpt lat="59.3048534" lon="18.4847055">
        <ele>1.57935</ele>
        <time>2011-06-01T15:53:24Z</time>
      </trkpt>
      <trkpt lat="59.3049469" lon="18.4840734">
        <ele>1.09863</ele>
        <time>2011-06-01T15:53:30Z</time>
      </trkpt>
      <trkpt lat="59.3049212" lon="18.4836176">
        <ele>0.618042</ele>
        <time>2011-06-01T15:53:34Z</time>
      </trkpt>
      <trkpt lat="59.3048367" lon="18.4830504">
        <ele>1.09863</ele>
        <time>2011-06-01T15:53:39Z</time>
      </trkpt>
      <trkpt lat="59.3048764" lon="18.4825622">
        <ele>2.54065</ele>
        <time>2011-06-01T15:53:44Z</time>
      </trkpt>
      <trkpt lat="59.3050481" lon="18.4819392">
        <ele>4.46326</ele>
        <time>2011-06-01T15:53:53Z</time>
      </trkpt>
      <trkpt lat="59.3051491" lon="18.481386">
        <ele>5.90527</ele>
        <time>2011-06-01T15:54:01Z</time>
      </trkpt>
      <trkpt lat="59.3052228" lon="18.480824">
        <ele>4.94385</ele>
        <time>2011-06-01T15:54:07Z</time>
      </trkpt>
      <trkpt lat="59.3053045" lon="18.4801608">
        <ele>2.54065</ele>
        <time>2011-06-01T15:54:12Z</time>
      </trkpt>
      <trkpt lat="59.3054695" lon="18.4792228">
        <ele>2.06006</ele>
        <time>2011-06-01T15:54:19Z</time>
      </trkpt>
      <trkpt lat="59.3054929" lon="18.4790964">
        <ele>2.06006</ele>
        <time>2011-06-01T15:54:20Z</time>
      </trkpt>
      <trkpt lat="59.3055524" lon="18.4785851">
        <ele>1.57935</ele>
        <time>2011-06-01T15:54:24Z</time>
      </trkpt>
      <trkpt lat="59.3057524" lon="18.4778146">
        <ele>1.57935</ele>
        <time>2011-06-01T15:54:31Z</time>
      </trkpt>
      <trkpt lat="59.3059385" lon="18.4769977">
        <ele>3.02124</ele>
        <time>2011-06-01T15:54:39Z</time>
      </trkpt>
      <trkpt lat="59.3060934" lon="18.4761845">
        <ele>4.94385</ele>
        <time>2011-06-01T15:54:48Z</time>
      </trkpt>
      <trkpt lat="59.3062507" lon="18.4754658">
        <ele>6.86646</ele>
        <time>2011-06-01T15:54:57Z</time>
      </trkpt>
      <trkpt lat="59.3064066" lon="18.4747751">
        <ele>8.30859</ele>
        <time>2011-06-01T15:55:06Z</time>
      </trkpt>
      <trkpt lat="59.3065658" lon="18.4741525">
        <ele>9.2699</ele>
        <time>2011-06-01T15:55:14Z</time>
      </trkpt>
      <trkpt lat="59.3067389" lon="18.4735589">
        <ele>9.75061</ele>
        <time>2011-06-01T15:55:22Z</time>
      </trkpt>
      <trkpt lat="59.3069379" lon="18.4731895">
        <ele>10.7118</ele>
        <time>2011-06-01T15:55:28Z</time>
      </trkpt>
      <trkpt lat="59.3069922" lon="18.4730968">
        <ele>11.6732</ele>
        <time>2011-06-01T15:55:30Z</time>
      </trkpt>
      <trkpt lat="59.3071853" lon="18.4726998">
        <ele>11.1925</ele>
        <time>2011-06-01T15:55:37Z</time>
      </trkpt>
      <trkpt lat="59.3074412" lon="18.4722085">
        <ele>9.75061</ele>
        <time>2011-06-01T15:55:43Z</time>
      </trkpt>
      <trkpt lat="59.307534" lon="18.4720674">
        <ele>9.75061</ele>
        <time>2011-06-01T15:55:45Z</time>
      </trkpt>
      <trkpt lat="59.3076626" lon="18.4717957">
        <ele>8.78918</ele>
        <time>2011-06-01T15:55:49Z</time>
      </trkpt>
      <trkpt lat="59.3077947" lon="18.4715457">
        <ele>7.34717</ele>
        <time>2011-06-01T15:55:54Z</time>
      </trkpt>
      <trkpt lat="59.3080924" lon="18.4712315">
        <ele>4.94385</ele>
        <time>2011-06-01T15:56:00Z</time>
      </trkpt>
      <trkpt lat="59.3085369" lon="18.4705166">
        <ele>3.02124</ele>
        <time>2011-06-01T15:56:08Z</time>
      </trkpt>
      <trkpt lat="59.3088104" lon="18.469999">
        <ele>3.50195</ele>
        <time>2011-06-01T15:56:14Z</time>
      </trkpt>
      <trkpt lat="59.3090052" lon="18.4696084">
        <ele>3.50195</ele>
        <time>2011-06-01T15:56:19Z</time>
      </trkpt>
      <trkpt lat="59.3093132" lon="18.4690894">
        <ele>3.02124</ele>
        <time>2011-06-01T15:56:26Z</time>
      </trkpt>
      <trkpt lat="59.3096019" lon="18.4683248">
        <ele>2.54065</ele>
        <time>2011-06-01T15:56:34Z</time>
      </trkpt>
      <trkpt lat="59.3097859" lon="18.4676975">
        <ele>1.57935</ele>
        <time>2011-06-01T15:56:40Z</time>
      </trkpt>
      <trkpt lat="59.3099113" lon="18.4667117">
        <ele>0.618042</ele>
        <time>2011-06-01T15:56:48Z</time>
      </trkpt>
      <trkpt lat="59.3100095" lon="18.4661354">
        <ele>0</ele>
        <time>2011-06-01T15:56:52Z</time>
      </trkpt>
      <trkpt lat="59.3103235" lon="18.465002">
        <ele>0</ele>
        <time>2011-06-01T15:56:59Z</time>
      </trkpt>
      <trkpt lat="59.3106056" lon="18.4639589">
        <ele>0</ele>
        <time>2011-06-01T15:57:06Z</time>
      </trkpt>
      <trkpt lat="59.3108948" lon="18.4630629">
        <ele>0</ele>
        <time>2011-06-01T15:57:13Z</time>
      </trkpt>
      <trkpt lat="59.3111472" lon="18.4623175">
        <ele>0</ele>
        <time>2011-06-01T15:57:20Z</time>
      </trkpt>
      <trkpt lat="59.3113634" lon="18.4616213">
        <ele>0</ele>
        <time>2011-06-01T15:57:28Z</time>
      </trkpt>
      <trkpt lat="59.3114078" lon="18.4614664">
        <ele>0.618042</ele>
        <time>2011-06-01T15:57:30Z</time>
      </trkpt>
      <trkpt lat="59.311452" lon="18.4611571">
        <ele>3.02124</ele>
        <time>2011-06-01T15:57:34Z</time>
      </trkpt>
      <trkpt lat="59.3115486" lon="18.4607848">
        <ele>4.46326</ele>
        <time>2011-06-01T15:57:40Z</time>
      </trkpt>
      <trkpt lat="59.3117247" lon="18.4601989">
        <ele>5.42456</ele>
        <time>2011-06-01T15:57:49Z</time>
      </trkpt>
      <trkpt lat="59.3118357" lon="18.4598601">
        <ele>5.42456</ele>
        <time>2011-06-01T15:57:54Z</time>
      </trkpt>
      <trkpt lat="59.3121552" lon="18.4593883">
        <ele>3.50195</ele>
        <time>2011-06-01T15:58:02Z</time>
      </trkpt>
      <trkpt lat="59.3124753" lon="18.4589713">
        <ele>0.137451</ele>
        <time>2011-06-01T15:58:08Z</time>
      </trkpt>
      <trkpt lat="59.3128311" lon="18.4584442">
        <ele>0</ele>
        <time>2011-06-01T15:58:15Z</time>
      </trkpt>
      <trkpt lat="59.3129532" lon="18.4582007">
        <ele>0</ele>
        <time>2011-06-01T15:58:18Z</time>
      </trkpt>
      <trkpt lat="59.3130306" lon="18.4578353">
        <ele>0</ele>
        <time>2011-06-01T15:58:22Z</time>
      </trkpt>
      <trkpt lat="59.3130323" lon="18.4569613">
        <ele>0</ele>
        <time>2011-06-01T15:58:31Z</time>
      </trkpt>
      <trkpt lat="59.3130342" lon="18.4563265">
        <ele>0</ele>
        <time>2011-06-01T15:58:38Z</time>
      </trkpt>
      <trkpt lat="59.3130446" lon="18.4559738">
        <ele>0</ele>
        <time>2011-06-01T15:58:42Z</time>
      </trkpt>
      <trkpt lat="59.3130653" lon="18.4556319">
        <ele>0</ele>
        <time>2011-06-01T15:58:48Z</time>
      </trkpt>
      <trkpt lat="59.3130684" lon="18.4555943">
        <ele>0</ele>
        <time>2011-06-01T15:58:50Z</time>
      </trkpt>
      <trkpt lat="59.3130767" lon="18.4556072">
        <ele>0</ele>
        <time>2011-06-01T15:59:01Z</time>
      </trkpt>
      <trkpt lat="59.3131545" lon="18.455633">
        <ele>0</ele>
        <time>2011-06-01T15:59:06Z</time>
      </trkpt>
      <trkpt lat="59.3132102" lon="18.4554726">
        <ele>0</ele>
        <time>2011-06-01T15:59:11Z</time>
      </trkpt>
      <trkpt lat="59.3132353" lon="18.4549368">
        <ele>0</ele>
        <time>2011-06-01T15:59:18Z</time>
      </trkpt>
      <trkpt lat="59.3132689" lon="18.4545883">
        <ele>0</ele>
        <time>2011-06-01T15:59:22Z</time>
      </trkpt>
      <trkpt lat="59.3132273" lon="18.4541521">
        <ele>0</ele>
        <time>2011-06-01T15:59:27Z</time>
      </trkpt>
      <trkpt lat="59.3132101" lon="18.4538658">
        <ele>0</ele>
        <time>2011-06-01T15:59:30Z</time>
      </trkpt>
      <trkpt lat="59.3132169" lon="18.4536677">
        <ele>0</ele>
        <time>2011-06-01T15:59:32Z</time>
      </trkpt>
      <trkpt lat="59.3133206" lon="18.4533311">
        <ele>0</ele>
        <time>2011-06-01T15:59:36Z</time>
      </trkpt>
      <trkpt lat="59.3133595" lon="18.4530388">
        <ele>0</ele>
        <time>2011-06-01T15:59:39Z</time>
      </trkpt>
      <trkpt lat="59.3133305" lon="18.4528353">
        <ele>0</ele>
        <time>2011-06-01T15:59:41Z</time>
      </trkpt>
      <trkpt lat="59.313262" lon="18.4521962">
        <ele>2.06006</ele>
        <time>2011-06-01T15:59:47Z</time>
      </trkpt>
      <trkpt lat="59.3132943" lon="18.4511426">
        <ele>2.54065</ele>
        <time>2011-06-01T15:59:56Z</time>
      </trkpt>
      <trkpt lat="59.3133579" lon="18.4500287">
        <ele>2.06006</ele>
        <time>2011-06-01T16:00:05Z</time>
      </trkpt>
      <trkpt lat="59.3133745" lon="18.4497292">
        <ele>2.06006</ele>
        <time>2011-06-01T16:00:08Z</time>
      </trkpt>
      <trkpt lat="59.3134156" lon="18.4494207">
        <ele>2.54065</ele>
        <time>2011-06-01T16:00:12Z</time>
      </trkpt>
      <trkpt lat="59.3135283" lon="18.44901">
        <ele>3.02124</ele>
        <time>2011-06-01T16:00:18Z</time>
      </trkpt>
      <trkpt lat="59.3135791" lon="18.4487057">
        <ele>3.02124</ele>
        <time>2011-06-01T16:00:22Z</time>
      </trkpt>
      <trkpt lat="59.3136123" lon="18.448209">
        <ele>2.54065</ele>
        <time>2011-06-01T16:00:29Z</time>
      </trkpt>
      <trkpt lat="59.3136211" lon="18.4481272">
        <ele>3.02124</ele>
        <time>2011-06-01T16:00:32Z</time>
      </trkpt>
      <trkpt lat="59.3135832" lon="18.4478237">
        <ele>2.54065</ele>
        <time>2011-06-01T16:00:38Z</time>
      </trkpt>
      <trkpt lat="59.3134833" lon="18.4474569">
        <ele>1.09863</ele>
        <time>2011-06-01T16:00:44Z</time>
      </trkpt>
      <trkpt lat="59.3134222" lon="18.4471226">
        <ele>0.618042</ele>
        <time>2011-06-01T16:00:49Z</time>
      </trkpt>
      <trkpt lat="59.3134182" lon="18.4465587">
        <ele>0.137451</ele>
        <time>2011-06-01T16:00:55Z</time>
      </trkpt>
      <trkpt lat="59.3134538" lon="18.4455372">
        <ele>0</ele>
        <time>2011-06-01T16:01:05Z</time>
      </trkpt>
      <trkpt lat="59.3134817" lon="18.4448559">
        <ele>0.137451</ele>
        <time>2011-06-01T16:01:12Z</time>
      </trkpt>
      <trkpt lat="59.3135175" lon="18.4437584">
        <ele>1.57935</ele>
        <time>2011-06-01T16:01:21Z</time>
      </trkpt>
      <trkpt lat="59.3135415" lon="18.4422663">
        <ele>4.94385</ele>
        <time>2011-06-01T16:01:33Z</time>
      </trkpt>
      <trkpt lat="59.3135301" lon="18.4413557">
        <ele>5.90527</ele>
        <time>2011-06-01T16:01:41Z</time>
      </trkpt>
      <trkpt lat="59.3135151" lon="18.44098">
        <ele>6.38586</ele>
        <time>2011-06-01T16:01:45Z</time>
      </trkpt>
      <trkpt lat="59.3135076" lon="18.4407075">
        <ele>6.38586</ele>
        <time>2011-06-01T16:01:49Z</time>
      </trkpt>
      <trkpt lat="59.3133907" lon="18.4400018">
        <ele>7.82788</ele>
        <time>2011-06-01T16:01:57Z</time>
      </trkpt>
      <trkpt lat="59.313248" lon="18.4393183">
        <ele>10.2312</ele>
        <time>2011-06-01T16:02:04Z</time>
      </trkpt>
      <trkpt lat="59.313099" lon="18.4384444">
        <ele>13.1151</ele>
        <time>2011-06-01T16:02:13Z</time>
      </trkpt>
      <trkpt lat="59.31294" lon="18.4375085">
        <ele>16.4797</ele>
        <time>2011-06-01T16:02:23Z</time>
      </trkpt>
      <trkpt lat="59.3128163" lon="18.4367205">
        <ele>17.4412</ele>
        <time>2011-06-01T16:02:32Z</time>
      </trkpt>
      <trkpt lat="59.3126835" lon="18.4359196">
        <ele>18.8831</ele>
        <time>2011-06-01T16:02:41Z</time>
      </trkpt>
      <trkpt lat="59.3125321" lon="18.4350581">
        <ele>19.3638</ele>
        <time>2011-06-01T16:02:50Z</time>
      </trkpt>
      <trkpt lat="59.3124421" lon="18.4345295">
        <ele>19.3638</ele>
        <time>2011-06-01T16:02:55Z</time>
      </trkpt>
      <trkpt lat="59.3123281" lon="18.4337331">
        <ele>17.9218</ele>
        <time>2011-06-01T16:03:02Z</time>
      </trkpt>
      <trkpt lat="59.3123358" lon="18.4333446">
        <ele>16.4797</ele>
        <time>2011-06-01T16:03:06Z</time>
      </trkpt>
      <trkpt lat="59.3123298" lon="18.4331363">
        <ele>15.999</ele>
        <time>2011-06-01T16:03:08Z</time>
      </trkpt>
      <trkpt lat="59.3122296" lon="18.4321728">
        <ele>14.557</ele>
        <time>2011-06-01T16:03:17Z</time>
      </trkpt>
      <trkpt lat="59.3121376" lon="18.4311904">
        <ele>15.5184</ele>
        <time>2011-06-01T16:03:26Z</time>
      </trkpt>
      <trkpt lat="59.3120221" lon="18.4301184">
        <ele>15.5184</ele>
        <time>2011-06-01T16:03:36Z</time>
      </trkpt>
      <trkpt lat="59.3119755" lon="18.4296967">
        <ele>15.0377</ele>
        <time>2011-06-01T16:03:40Z</time>
      </trkpt>
      <trkpt lat="59.3120301" lon="18.4293316">
        <ele>14.557</ele>
        <time>2011-06-01T16:03:44Z</time>
      </trkpt>
      <trkpt lat="59.3122826" lon="18.4287195">
        <ele>13.1151</ele>
        <time>2011-06-01T16:03:51Z</time>
      </trkpt>
      <trkpt lat="59.3124572" lon="18.4281232">
        <ele>11.6732</ele>
        <time>2011-06-01T16:03:57Z</time>
      </trkpt>
      <trkpt lat="59.3125453" lon="18.4274865">
        <ele>10.7118</ele>
        <time>2011-06-01T16:04:03Z</time>
      </trkpt>
      <trkpt lat="59.3125949" lon="18.4271746">
        <ele>10.7118</ele>
        <time>2011-06-01T16:04:07Z</time>
      </trkpt>
      <trkpt lat="59.3126359" lon="18.4269404">
        <ele>10.2312</ele>
        <time>2011-06-01T16:04:13Z</time>
      </trkpt>
      <trkpt lat="59.312681" lon="18.4267318">
        <ele>10.2312</ele>
        <time>2011-06-01T16:04:18Z</time>
      </trkpt>
      <trkpt lat="59.3126944" lon="18.4265718">
        <ele>9.75061</ele>
        <time>2011-06-01T16:04:21Z</time>
      </trkpt>
      <trkpt lat="59.3127295" lon="18.4258656">
        <ele>10.2312</ele>
        <time>2011-06-01T16:04:29Z</time>
      </trkpt>
      <trkpt lat="59.3127541" lon="18.4254552">
        <ele>10.2312</ele>
        <time>2011-06-01T16:04:33Z</time>
      </trkpt>
      <trkpt lat="59.3127939" lon="18.4251501">
        <ele>10.2312</ele>
        <time>2011-06-01T16:04:36Z</time>
      </trkpt>
      <trkpt lat="59.3129211" lon="18.4248312">
        <ele>10.2312</ele>
        <time>2011-06-01T16:04:40Z</time>
      </trkpt>
      <trkpt lat="59.3130005" lon="18.4245655">
        <ele>9.75061</ele>
        <time>2011-06-01T16:04:43Z</time>
      </trkpt>
      <trkpt lat="59.3130092" lon="18.4243479">
        <ele>9.75061</ele>
        <time>2011-06-01T16:04:45Z</time>
      </trkpt>
      <trkpt lat="59.3130026" lon="18.4240086">
        <ele>9.75061</ele>
        <time>2011-06-01T16:04:48Z</time>
      </trkpt>
      <trkpt lat="59.3130877" lon="18.423476">
        <ele>10.2312</ele>
        <time>2011-06-01T16:04:53Z</time>
      </trkpt>
      <trkpt lat="59.3133353" lon="18.422847">
        <ele>10.2312</ele>
        <time>2011-06-01T16:05:00Z</time>
      </trkpt>
      <trkpt lat="59.3136527" lon="18.4219939">
        <ele>10.7118</ele>
        <time>2011-06-01T16:05:09Z</time>
      </trkpt>
      <trkpt lat="59.3138522" lon="18.4212477">
        <ele>10.7118</ele>
        <time>2011-06-01T16:05:16Z</time>
      </trkpt>
      <trkpt lat="59.3140551" lon="18.4204269">
        <ele>11.1925</ele>
        <time>2011-06-01T16:05:24Z</time>
      </trkpt>
      <trkpt lat="59.3142779" lon="18.4197496">
        <ele>11.1925</ele>
        <time>2011-06-01T16:05:31Z</time>
      </trkpt>
      <trkpt lat="59.3146318" lon="18.4189584">
        <ele>11.6732</ele>
        <time>2011-06-01T16:05:40Z</time>
      </trkpt>
      <trkpt lat="59.3150422" lon="18.418198">
        <ele>12.6344</ele>
        <time>2011-06-01T16:05:50Z</time>
      </trkpt>
      <trkpt lat="59.3154415" lon="18.417566">
        <ele>12.6344</ele>
        <time>2011-06-01T16:05:59Z</time>
      </trkpt>
      <trkpt lat="59.3158714" lon="18.4169564">
        <ele>11.6732</ele>
        <time>2011-06-01T16:06:08Z</time>
      </trkpt>
      <trkpt lat="59.3161941" lon="18.4164602">
        <ele>11.6732</ele>
        <time>2011-06-01T16:06:15Z</time>
      </trkpt>
      <trkpt lat="59.3166696" lon="18.415637">
        <ele>10.7118</ele>
        <time>2011-06-01T16:06:26Z</time>
      </trkpt>
      <trkpt lat="59.3167499" lon="18.4155068">
        <ele>10.7118</ele>
        <time>2011-06-01T16:06:28Z</time>
      </trkpt>
      <trkpt lat="59.3170083" lon="18.4149446">
        <ele>11.1925</ele>
        <time>2011-06-01T16:06:35Z</time>
      </trkpt>
      <trkpt lat="59.3170728" lon="18.4147676">
        <ele>11.6732</ele>
        <time>2011-06-01T16:06:37Z</time>
      </trkpt>
      <trkpt lat="59.317145" lon="18.4144827">
        <ele>11.6732</ele>
        <time>2011-06-01T16:06:40Z</time>
      </trkpt>
      <trkpt lat="59.3174358" lon="18.4134614">
        <ele>13.1151</ele>
        <time>2011-06-01T16:06:51Z</time>
      </trkpt>
      <trkpt lat="59.3176584" lon="18.4125236">
        <ele>13.5958</ele>
        <time>2011-06-01T16:07:01Z</time>
      </trkpt>
      <trkpt lat="59.3178741" lon="18.4116068">
        <ele>14.0764</ele>
        <time>2011-06-01T16:07:11Z</time>
      </trkpt>
      <trkpt lat="59.3181138" lon="18.4106629">
        <ele>14.557</ele>
        <time>2011-06-01T16:07:21Z</time>
      </trkpt>
      <trkpt lat="59.3182861" lon="18.4099787">
        <ele>14.0764</ele>
        <time>2011-06-01T16:07:28Z</time>
      </trkpt>
      <trkpt lat="59.3185027" lon="18.4091553">
        <ele>13.5958</ele>
        <time>2011-06-01T16:07:36Z</time>
      </trkpt>
      <trkpt lat="59.3187516" lon="18.4083498">
        <ele>13.1151</ele>
        <time>2011-06-01T16:07:44Z</time>
      </trkpt>
      <trkpt lat="59.3190669" lon="18.4074918">
        <ele>13.1151</ele>
        <time>2011-06-01T16:07:53Z</time>
      </trkpt>
      <trkpt lat="59.3192893" lon="18.40672">
        <ele>12.6344</ele>
        <time>2011-06-01T16:08:01Z</time>
      </trkpt>
      <trkpt lat="59.3194398" lon="18.4059803">
        <ele>13.1151</ele>
        <time>2011-06-01T16:08:08Z</time>
      </trkpt>
      <trkpt lat="59.3196265" lon="18.4050096">
        <ele>13.5958</ele>
        <time>2011-06-01T16:08:17Z</time>
      </trkpt>
      <trkpt lat="59.3196435" lon="18.4049058">
        <ele>14.0764</ele>
        <time>2011-06-01T16:08:18Z</time>
      </trkpt>
      <trkpt lat="59.3197524" lon="18.4045537">
        <ele>14.557</ele>
        <time>2011-06-01T16:08:22Z</time>
      </trkpt>
      <trkpt lat="59.3200251" lon="18.4041345">
        <ele>15.0377</ele>
        <time>2011-06-01T16:08:29Z</time>
      </trkpt>
      <trkpt lat="59.3203255" lon="18.4037045">
        <ele>16.4797</ele>
        <time>2011-06-01T16:08:37Z</time>
      </trkpt>
      <trkpt lat="59.3204677" lon="18.403442">
        <ele>15.5184</ele>
        <time>2011-06-01T16:08:41Z</time>
      </trkpt>
      <trkpt lat="59.3207662" lon="18.4029733">
        <ele>14.557</ele>
        <time>2011-06-01T16:08:48Z</time>
      </trkpt>
      <trkpt lat="59.3209484" lon="18.4024744">
        <ele>11.6732</ele>
        <time>2011-06-01T16:08:53Z</time>
      </trkpt>
      <trkpt lat="59.3211514" lon="18.4021983">
        <ele>9.75061</ele>
        <time>2011-06-01T16:08:57Z</time>
      </trkpt>
      <trkpt lat="59.3214301" lon="18.4020032">
        <ele>8.30859</ele>
        <time>2011-06-01T16:09:02Z</time>
      </trkpt>
      <trkpt lat="59.321731" lon="18.4016477">
        <ele>6.86646</ele>
        <time>2011-06-01T16:09:08Z</time>
      </trkpt>
      <trkpt lat="59.32216" lon="18.4009276">
        <ele>6.38586</ele>
        <time>2011-06-01T16:09:16Z</time>
      </trkpt>
      <trkpt lat="59.3223145" lon="18.4006811">
        <ele>6.38586</ele>
        <time>2011-06-01T16:09:19Z</time>
      </trkpt>
      <trkpt lat="59.32253" lon="18.4001855">
        <ele>8.30859</ele>
        <time>2011-06-01T16:09:25Z</time>
      </trkpt>
      <trkpt lat="59.3227587" lon="18.3995928">
        <ele>11.1925</ele>
        <time>2011-06-01T16:09:33Z</time>
      </trkpt>
      <trkpt lat="59.3228397" lon="18.3993879">
        <ele>10.7118</ele>
        <time>2011-06-01T16:09:36Z</time>
      </trkpt>
      <trkpt lat="59.3229798" lon="18.3990446">
        <ele>12.6344</ele>
        <time>2011-06-01T16:09:41Z</time>
      </trkpt>
      <trkpt lat="59.3230245" lon="18.3988093">
        <ele>14.0764</ele>
        <time>2011-06-01T16:09:44Z</time>
      </trkpt>
      <trkpt lat="59.3231261" lon="18.3984515">
        <ele>15.5184</ele>
        <time>2011-06-01T16:09:50Z</time>
      </trkpt>
      <trkpt lat="59.3232996" lon="18.3980263">
        <ele>17.4412</ele>
        <time>2011-06-01T16:09:58Z</time>
      </trkpt>
      <trkpt lat="59.3236025" lon="18.3973902">
        <ele>17.9218</ele>
        <time>2011-06-01T16:10:08Z</time>
      </trkpt>
      <trkpt lat="59.3238542" lon="18.3967031">
        <ele>16.9604</ele>
        <time>2011-06-01T16:10:16Z</time>
      </trkpt>
      <trkpt lat="59.324063" lon="18.3960258">
        <ele>12.1538</ele>
        <time>2011-06-01T16:10:23Z</time>
      </trkpt>
      <trkpt lat="59.3243121" lon="18.3955099">
        <ele>9.2699</ele>
        <time>2011-06-01T16:10:29Z</time>
      </trkpt>
      <trkpt lat="59.3246457" lon="18.3948596">
        <ele>6.86646</ele>
        <time>2011-06-01T16:10:36Z</time>
      </trkpt>
      <trkpt lat="59.3249189" lon="18.3941821">
        <ele>4.94385</ele>
        <time>2011-06-01T16:10:42Z</time>
      </trkpt>
      <trkpt lat="59.3251836" lon="18.3934683">
        <ele>2.06006</ele>
        <time>2011-06-01T16:10:48Z</time>
      </trkpt>
      <trkpt lat="59.3253265" lon="18.3931434">
        <ele>1.57935</ele>
        <time>2011-06-01T16:10:51Z</time>
      </trkpt>
      <trkpt lat="59.3256441" lon="18.3927106">
        <ele>0</ele>
        <time>2011-06-01T16:10:57Z</time>
      </trkpt>
      <trkpt lat="59.3256954" lon="18.3926541">
        <ele>0</ele>
        <time>2011-06-01T16:10:58Z</time>
      </trkpt>
      <trkpt lat="59.3258358" lon="18.3924524">
        <ele>0</ele>
        <time>2011-06-01T16:11:01Z</time>
      </trkpt>
      <trkpt lat="59.3259863" lon="18.392363">
        <ele>0</ele>
        <time>2011-06-01T16:11:05Z</time>
      </trkpt>
      <trkpt lat="59.3260627" lon="18.3922749">
        <ele>0</ele>
        <time>2011-06-01T16:11:08Z</time>
      </trkpt>
      <trkpt lat="59.3260837" lon="18.3922123">
        <ele>0</ele>
        <time>2011-06-01T16:11:09Z</time>
      </trkpt>
      <trkpt lat="59.3261316" lon="18.3920765">
        <ele>0</ele>
        <time>2011-06-01T16:11:11Z</time>
      </trkpt>
      <trkpt lat="59.326273" lon="18.3917186">
        <ele>0</ele>
        <time>2011-06-01T16:11:16Z</time>
      </trkpt>
      <trkpt lat="59.3265963" lon="18.3910263">
        <ele>0</ele>
        <time>2011-06-01T16:11:25Z</time>
      </trkpt>
      <trkpt lat="59.3268756" lon="18.3904205">
        <ele>0</ele>
        <time>2011-06-01T16:11:33Z</time>
      </trkpt>
      <trkpt lat="59.32692" lon="18.3903272">
        <ele>0</ele>
        <time>2011-06-01T16:11:35Z</time>
      </trkpt>
      <trkpt lat="59.3270108" lon="18.3901385">
        <ele>0</ele>
        <time>2011-06-01T16:11:39Z</time>
      </trkpt>
      <trkpt lat="59.327119" lon="18.3901867">
        <ele>0</ele>
        <time>2011-06-01T16:11:43Z</time>
      </trkpt>
      <trkpt lat="59.3273259" lon="18.3905898">
        <ele>0</ele>
        <time>2011-06-01T16:11:50Z</time>
      </trkpt>
      <trkpt lat="59.3275484" lon="18.3910238">
        <ele>0</ele>
        <time>2011-06-01T16:11:57Z</time>
      </trkpt>
      <trkpt lat="59.3276167" lon="18.3911641">
        <ele>0</ele>
        <time>2011-06-01T16:11:59Z</time>
      </trkpt>
      <trkpt lat="59.3278959" lon="18.3916494">
        <ele>0</ele>
        <time>2011-06-01T16:12:06Z</time>
      </trkpt>
      <trkpt lat="59.3279907" lon="18.391758">
        <ele>0</ele>
        <time>2011-06-01T16:12:08Z</time>
      </trkpt>
      <trkpt lat="59.3282715" lon="18.3918283">
        <ele>0</ele>
        <time>2011-06-01T16:12:13Z</time>
      </trkpt>
      <trkpt lat="59.3283249" lon="18.3918025">
        <ele>0</ele>
        <time>2011-06-01T16:12:14Z</time>
      </trkpt>
      <trkpt lat="59.3286247" lon="18.3916391">
        <ele>0</ele>
        <time>2011-06-01T16:12:20Z</time>
      </trkpt>
      <trkpt lat="59.3293184" lon="18.3914889">
        <ele>0</ele>
        <time>2011-06-01T16:12:32Z</time>
      </trkpt>
      <trkpt lat="59.329696" lon="18.3911361">
        <ele>0</ele>
        <time>2011-06-01T16:12:39Z</time>
      </trkpt>
      <trkpt lat="59.3301514" lon="18.3906338">
        <ele>0</ele>
        <time>2011-06-01T16:12:47Z</time>
      </trkpt>
      <trkpt lat="59.3307112" lon="18.3900342">
        <ele>0</ele>
        <time>2011-06-01T16:12:57Z</time>
      </trkpt>
      <trkpt lat="59.3312884" lon="18.3893936">
        <ele>0</ele>
        <time>2011-06-01T16:13:08Z</time>
      </trkpt>
      <trkpt lat="59.3316971" lon="18.3889414">
        <ele>1.57935</ele>
        <time>2011-06-01T16:13:17Z</time>
      </trkpt>
      <trkpt lat="59.3318831" lon="18.3887332">
        <ele>3.50195</ele>
        <time>2011-06-01T16:13:22Z</time>
      </trkpt>
      <trkpt lat="59.3321413" lon="18.3883949">
        <ele>6.38586</ele>
        <time>2011-06-01T16:13:31Z</time>
      </trkpt>
      <trkpt lat="59.3323954" lon="18.3881344">
        <ele>6.86646</ele>
        <time>2011-06-01T16:13:39Z</time>
      </trkpt>
      <trkpt lat="59.3326098" lon="18.3877153">
        <ele>5.90527</ele>
        <time>2011-06-01T16:13:46Z</time>
      </trkpt>
      <trkpt lat="59.3326721" lon="18.3875623">
        <ele>5.42456</ele>
        <time>2011-06-01T16:13:48Z</time>
      </trkpt>
      <trkpt lat="59.3328726" lon="18.3869945">
        <ele>3.50195</ele>
        <time>2011-06-01T16:13:54Z</time>
      </trkpt>
      <trkpt lat="59.3331573" lon="18.3864224">
        <ele>2.54065</ele>
        <time>2011-06-01T16:14:00Z</time>
      </trkpt>
      <trkpt lat="59.3334661" lon="18.3860747">
        <ele>2.06006</ele>
        <time>2011-06-01T16:14:05Z</time>
      </trkpt>
      <trkpt lat="59.3340556" lon="18.3854975">
        <ele>2.06006</ele>
        <time>2011-06-01T16:14:14Z</time>
      </trkpt>
      <trkpt lat="59.3341115" lon="18.3854284">
        <ele>2.06006</ele>
        <time>2011-06-01T16:14:15Z</time>
      </trkpt>
      <trkpt lat="59.334368" lon="18.3849339">
        <ele>3.50195</ele>
        <time>2011-06-01T16:14:21Z</time>
      </trkpt>
      <trkpt lat="59.3346529" lon="18.3841166">
        <ele>4.94385</ele>
        <time>2011-06-01T16:14:30Z</time>
      </trkpt>
      <trkpt lat="59.3349378" lon="18.3832268">
        <ele>6.86646</ele>
        <time>2011-06-01T16:14:40Z</time>
      </trkpt>
      <trkpt lat="59.3352031" lon="18.38253">
        <ele>8.30859</ele>
        <time>2011-06-01T16:14:49Z</time>
      </trkpt>
      <trkpt lat="59.3352613" lon="18.3823739">
        <ele>8.78918</ele>
        <time>2011-06-01T16:14:51Z</time>
      </trkpt>
      <trkpt lat="59.3355132" lon="18.3818721">
        <ele>8.30859</ele>
        <time>2011-06-01T16:14:58Z</time>
      </trkpt>
      <trkpt lat="59.3357645" lon="18.3813672">
        <ele>7.34717</ele>
        <time>2011-06-01T16:15:04Z</time>
      </trkpt>
      <trkpt lat="59.336107" lon="18.3805612">
        <ele>6.86646</ele>
        <time>2011-06-01T16:15:12Z</time>
      </trkpt>
      <trkpt lat="59.3364462" lon="18.3796398">
        <ele>6.86646</ele>
        <time>2011-06-01T16:15:21Z</time>
      </trkpt>
      <trkpt lat="59.3368011" lon="18.3787948">
        <ele>7.34717</ele>
        <time>2011-06-01T16:15:30Z</time>
      </trkpt>
      <trkpt lat="59.3370942" lon="18.3781003">
        <ele>8.30859</ele>
        <time>2011-06-01T16:15:38Z</time>
      </trkpt>
      <trkpt lat="59.3374181" lon="18.3772976">
        <ele>9.75061</ele>
        <time>2011-06-01T16:15:48Z</time>
      </trkpt>
      <trkpt lat="59.3376937" lon="18.376591">
        <ele>10.7118</ele>
        <time>2011-06-01T16:15:57Z</time>
      </trkpt>
      <trkpt lat="59.3379561" lon="18.3759096">
        <ele>12.1538</ele>
        <time>2011-06-01T16:16:06Z</time>
      </trkpt>
      <trkpt lat="59.3382321" lon="18.3752147">
        <ele>12.1538</ele>
        <time>2011-06-01T16:16:15Z</time>
      </trkpt>
      <trkpt lat="59.3384433" lon="18.3746077">
        <ele>12.1538</ele>
        <time>2011-06-01T16:16:22Z</time>
      </trkpt>
      <trkpt lat="59.3385591" lon="18.3742279">
        <ele>11.6732</ele>
        <time>2011-06-01T16:16:26Z</time>
      </trkpt>
      <trkpt lat="59.3387063" lon="18.3739781">
        <ele>11.6732</ele>
        <time>2011-06-01T16:16:30Z</time>
      </trkpt>
      <trkpt lat="59.3387981" lon="18.3738706">
        <ele>11.6732</ele>
        <time>2011-06-01T16:16:32Z</time>
      </trkpt>
      <trkpt lat="59.3392486" lon="18.3732025">
        <ele>13.1151</ele>
        <time>2011-06-01T16:16:42Z</time>
      </trkpt>
      <trkpt lat="59.3395624" lon="18.3727824">
        <ele>15.5184</ele>
        <time>2011-06-01T16:16:50Z</time>
      </trkpt>
      <trkpt lat="59.3398703" lon="18.37242">
        <ele>18.8831</ele>
        <time>2011-06-01T16:16:59Z</time>
      </trkpt>
      <trkpt lat="59.3401614" lon="18.3720895">
        <ele>22.7283</ele>
        <time>2011-06-01T16:17:08Z</time>
      </trkpt>
      <trkpt lat="59.3404504" lon="18.3718277">
        <ele>24.651</ele>
        <time>2011-06-01T16:17:16Z</time>
      </trkpt>
      <trkpt lat="59.3408001" lon="18.3716932">
        <ele>25.1317</ele>
        <time>2011-06-01T16:17:24Z</time>
      </trkpt>
      <trkpt lat="59.3412105" lon="18.3715684">
        <ele>25.1317</ele>
        <time>2011-06-01T16:17:31Z</time>
      </trkpt>
      <trkpt lat="59.3417941" lon="18.3713743">
        <ele>21.767</ele>
        <time>2011-06-01T16:17:39Z</time>
      </trkpt>
      <trkpt lat="59.3423382" lon="18.3711763">
        <ele>22.2476</ele>
        <time>2011-06-01T16:17:47Z</time>
      </trkpt>
      <trkpt lat="59.3428289" lon="18.3710383">
        <ele>23.6896</ele>
        <time>2011-06-01T16:17:56Z</time>
      </trkpt>
      <trkpt lat="59.3432286" lon="18.3710445">
        <ele>24.1703</ele>
        <time>2011-06-01T16:18:03Z</time>
      </trkpt>
      <trkpt lat="59.3436071" lon="18.3711798">
        <ele>23.6896</ele>
        <time>2011-06-01T16:18:09Z</time>
      </trkpt>
      <trkpt lat="59.3440452" lon="18.3714632">
        <ele>20.8057</ele>
        <time>2011-06-01T16:18:15Z</time>
      </trkpt>
      <trkpt lat="59.3444944" lon="18.3719357">
        <ele>16.4797</ele>
        <time>2011-06-01T16:18:21Z</time>
      </trkpt>
      <trkpt lat="59.3448711" lon="18.3725226">
        <ele>11.6732</ele>
        <time>2011-06-01T16:18:26Z</time>
      </trkpt>
      <trkpt lat="59.3452016" lon="18.3732664">
        <ele>9.75061</ele>
        <time>2011-06-01T16:18:31Z</time>
      </trkpt>
      <trkpt lat="59.3454242" lon="18.3740412">
        <ele>9.2699</ele>
        <time>2011-06-01T16:18:36Z</time>
      </trkpt>
      <trkpt lat="59.3456321" lon="18.3750609">
        <ele>9.75061</ele>
        <time>2011-06-01T16:18:43Z</time>
      </trkpt>
      <trkpt lat="59.3458319" lon="18.3761163">
        <ele>10.2312</ele>
        <time>2011-06-01T16:18:51Z</time>
      </trkpt>
      <trkpt lat="59.3460391" lon="18.3771922">
        <ele>9.2699</ele>
        <time>2011-06-01T16:18:59Z</time>
      </trkpt>
      <trkpt lat="59.3462593" lon="18.3783609">
        <ele>8.30859</ele>
        <time>2011-06-01T16:19:07Z</time>
      </trkpt>
      <trkpt lat="59.3465167" lon="18.3797322">
        <ele>6.38586</ele>
        <time>2011-06-01T16:19:16Z</time>
      </trkpt>
      <trkpt lat="59.3467463" lon="18.3808958">
        <ele>3.50195</ele>
        <time>2011-06-01T16:19:24Z</time>
      </trkpt>
      <trkpt lat="59.3469442" lon="18.381982">
        <ele>0</ele>
        <time>2011-06-01T16:19:32Z</time>
      </trkpt>
      <trkpt lat="59.347121" lon="18.3826834">
        <ele>0</ele>
        <time>2011-06-01T16:19:37Z</time>
      </trkpt>
      <trkpt lat="59.3471851" lon="18.3829276">
        <ele>0</ele>
        <time>2011-06-01T16:19:39Z</time>
      </trkpt>
      <trkpt lat="59.347383" lon="18.3830575">
        <ele>0</ele>
        <time>2011-06-01T16:19:43Z</time>
      </trkpt>
      <trkpt lat="59.3475068" lon="18.3827836">
        <ele>0</ele>
        <time>2011-06-01T16:19:46Z</time>
      </trkpt>
      <trkpt lat="59.3475586" lon="18.3825296">
        <ele>0</ele>
        <time>2011-06-01T16:19:48Z</time>
      </trkpt>
      <trkpt lat="59.3477798" lon="18.380919">
        <ele>0</ele>
        <time>2011-06-01T16:19:59Z</time>
      </trkpt>
      <trkpt lat="59.3479912" lon="18.379457">
        <ele>0</ele>
        <time>2011-06-01T16:20:09Z</time>
      </trkpt>
      <trkpt lat="59.3481158" lon="18.3785841">
        <ele>0</ele>
        <time>2011-06-01T16:20:16Z</time>
      </trkpt>
      <trkpt lat="59.3482299" lon="18.3777902">
        <ele>1.09863</ele>
        <time>2011-06-01T16:20:24Z</time>
      </trkpt>
      <trkpt lat="59.3483599" lon="18.3768794">
        <ele>2.06006</ele>
        <time>2011-06-01T16:20:33Z</time>
      </trkpt>
      <trkpt lat="59.3484857" lon="18.3759977">
        <ele>2.06006</ele>
        <time>2011-06-01T16:20:41Z</time>
      </trkpt>
      <trkpt lat="59.3486135" lon="18.3750117">
        <ele>3.50195</ele>
        <time>2011-06-01T16:20:50Z</time>
      </trkpt>
      <trkpt lat="59.3487503" lon="18.3739699">
        <ele>5.42456</ele>
        <time>2011-06-01T16:21:00Z</time>
      </trkpt>
      <trkpt lat="59.3488953" lon="18.3729876">
        <ele>6.86646</ele>
        <time>2011-06-01T16:21:10Z</time>
      </trkpt>
      <trkpt lat="59.3489962" lon="18.3722815">
        <ele>7.34717</ele>
        <time>2011-06-01T16:21:17Z</time>
      </trkpt>
      <trkpt lat="59.3491088" lon="18.3714399">
        <ele>6.38586</ele>
        <time>2011-06-01T16:21:24Z</time>
      </trkpt>
      <trkpt lat="59.3491955" lon="18.3708238">
        <ele>6.38586</ele>
        <time>2011-06-01T16:21:29Z</time>
      </trkpt>
      <trkpt lat="59.3492146" lon="18.3706949">
        <ele>6.38586</ele>
        <time>2011-06-01T16:21:30Z</time>
      </trkpt>
      <trkpt lat="59.3492925" lon="18.3699086">
        <ele>5.42456</ele>
        <time>2011-06-01T16:21:36Z</time>
      </trkpt>
      <trkpt lat="59.3493277" lon="18.3690233">
        <ele>3.50195</ele>
        <time>2011-06-01T16:21:42Z</time>
      </trkpt>
      <trkpt lat="59.3492882" lon="18.3679391">
        <ele>2.06006</ele>
        <time>2011-06-01T16:21:49Z</time>
      </trkpt>
      <trkpt lat="59.3491689" lon="18.3669857">
        <ele>1.57935</ele>
        <time>2011-06-01T16:21:56Z</time>
      </trkpt>
      <trkpt lat="59.3490036" lon="18.3662981">
        <ele>1.09863</ele>
        <time>2011-06-01T16:22:02Z</time>
      </trkpt>
      <trkpt lat="59.3487894" lon="18.36556">
        <ele>1.09863</ele>
        <time>2011-06-01T16:22:09Z</time>
      </trkpt>
      <trkpt lat="59.3484112" lon="18.3645312">
        <ele>1.57935</ele>
        <time>2011-06-01T16:22:19Z</time>
      </trkpt>
      <trkpt lat="59.3480868" lon="18.3636597">
        <ele>3.50195</ele>
        <time>2011-06-01T16:22:28Z</time>
      </trkpt>
      <trkpt lat="59.3478915" lon="18.363143">
        <ele>4.46326</ele>
        <time>2011-06-01T16:22:34Z</time>
      </trkpt>
      <trkpt lat="59.3476223" lon="18.3625166">
        <ele>6.38586</ele>
        <time>2011-06-01T16:22:42Z</time>
      </trkpt>
      <trkpt lat="59.3472943" lon="18.3620814">
        <ele>7.34717</ele>
        <time>2011-06-01T16:22:49Z</time>
      </trkpt>
      <trkpt lat="59.346897" lon="18.361835">
        <ele>7.82788</ele>
        <time>2011-06-01T16:22:56Z</time>
      </trkpt>
      <trkpt lat="59.346439" lon="18.3616796">
        <ele>8.30859</ele>
        <time>2011-06-01T16:23:04Z</time>
      </trkpt>
      <trkpt lat="59.3461149" lon="18.3613938">
        <ele>8.30859</ele>
        <time>2011-06-01T16:23:10Z</time>
      </trkpt>
      <trkpt lat="59.3459169" lon="18.3609067">
        <ele>8.30859</ele>
        <time>2011-06-01T16:23:15Z</time>
      </trkpt>
      <trkpt lat="59.3458771" lon="18.3606465">
        <ele>7.82788</ele>
        <time>2011-06-01T16:23:17Z</time>
      </trkpt>
      <trkpt lat="59.3458024" lon="18.3594789">
        <ele>5.42456</ele>
        <time>2011-06-01T16:23:25Z</time>
      </trkpt>
      <trkpt lat="59.3456871" lon="18.3586595">
        <ele>4.94385</ele>
        <time>2011-06-01T16:23:31Z</time>
      </trkpt>
      <trkpt lat="59.3456607" lon="18.35854">
        <ele>5.42456</ele>
        <time>2011-06-01T16:23:32Z</time>
      </trkpt>
      <trkpt lat="59.3453898" lon="18.357821">
        <ele>5.42456</ele>
        <time>2011-06-01T16:23:39Z</time>
      </trkpt>
      <trkpt lat="59.3449391" lon="18.3569243">
        <ele>7.34717</ele>
        <time>2011-06-01T16:23:49Z</time>
      </trkpt>
      <trkpt lat="59.3446804" lon="18.3564425">
        <ele>10.2312</ele>
        <time>2011-06-01T16:23:56Z</time>
      </trkpt>
      <trkpt lat="59.3443915" lon="18.3559516">
        <ele>13.1151</ele>
        <time>2011-06-01T16:24:05Z</time>
      </trkpt>
      <trkpt lat="59.3441318" lon="18.3556624">
        <ele>15.999</ele>
        <time>2011-06-01T16:24:13Z</time>
      </trkpt>
      <trkpt lat="59.3439335" lon="18.3555581">
        <ele>16.9604</ele>
        <time>2011-06-01T16:24:19Z</time>
      </trkpt>
      <trkpt lat="59.3436726" lon="18.3554788">
        <ele>17.4412</ele>
        <time>2011-06-01T16:24:26Z</time>
      </trkpt>
      <trkpt lat="59.3433917" lon="18.3555286">
        <ele>15.0377</ele>
        <time>2011-06-01T16:24:33Z</time>
      </trkpt>
      <trkpt lat="59.3433452" lon="18.3555464">
        <ele>15.5184</ele>
        <time>2011-06-01T16:24:34Z</time>
      </trkpt>
      <trkpt lat="59.3430141" lon="18.3558184">
        <ele>16.4797</ele>
        <time>2011-06-01T16:24:41Z</time>
      </trkpt>
      <trkpt lat="59.3426925" lon="18.356305">
        <ele>18.8831</ele>
        <time>2011-06-01T16:24:48Z</time>
      </trkpt>
      <trkpt lat="59.3423509" lon="18.3568181">
        <ele>18.4023</ele>
        <time>2011-06-01T16:24:55Z</time>
      </trkpt>
      <trkpt lat="59.3420251" lon="18.3571014">
        <ele>15.999</ele>
        <time>2011-06-01T16:25:00Z</time>
      </trkpt>
      <trkpt lat="59.3417005" lon="18.3571872">
        <ele>12.6344</ele>
        <time>2011-06-01T16:25:04Z</time>
      </trkpt>
      <trkpt lat="59.3413444" lon="18.3571003">
        <ele>9.75061</ele>
        <time>2011-06-01T16:25:08Z</time>
      </trkpt>
      <trkpt lat="59.3410029" lon="18.35687">
        <ele>7.82788</ele>
        <time>2011-06-01T16:25:12Z</time>
      </trkpt>
      <trkpt lat="59.3404681" lon="18.3564436">
        <ele>6.86646</ele>
        <time>2011-06-01T16:25:19Z</time>
      </trkpt>
      <trkpt lat="59.3399732" lon="18.3559136">
        <ele>5.90527</ele>
        <time>2011-06-01T16:25:26Z</time>
      </trkpt>
      <trkpt lat="59.3394807" lon="18.3552164">
        <ele>5.90527</ele>
        <time>2011-06-01T16:25:34Z</time>
      </trkpt>
      <trkpt lat="59.3387249" lon="18.3541286">
        <ele>7.34717</ele>
        <time>2011-06-01T16:25:47Z</time>
      </trkpt>
      <trkpt lat="59.3379702" lon="18.3529776">
        <ele>7.34717</ele>
        <time>2011-06-01T16:26:01Z</time>
      </trkpt>
      <trkpt lat="59.3375713" lon="18.352139">
        <ele>7.34717</ele>
        <time>2011-06-01T16:26:09Z</time>
      </trkpt>
      <trkpt lat="59.3372028" lon="18.3512277">
        <ele>8.30859</ele>
        <time>2011-06-01T16:26:17Z</time>
      </trkpt>
      <trkpt lat="59.3367358" lon="18.3500853">
        <ele>7.34717</ele>
        <time>2011-06-01T16:26:27Z</time>
      </trkpt>
      <trkpt lat="59.3364146" lon="18.34912">
        <ele>7.34717</ele>
        <time>2011-06-01T16:26:35Z</time>
      </trkpt>
      <trkpt lat="59.3362665" lon="18.3483724">
        <ele>5.90527</ele>
        <time>2011-06-01T16:26:41Z</time>
      </trkpt>
      <trkpt lat="59.3361" lon="18.3472898">
        <ele>5.42456</ele>
        <time>2011-06-01T16:26:50Z</time>
      </trkpt>
      <trkpt lat="59.3359603" lon="18.3464671">
        <ele>5.90527</ele>
        <time>2011-06-01T16:26:58Z</time>
      </trkpt>
      <trkpt lat="59.3357858" lon="18.3458534">
        <ele>6.38586</ele>
        <time>2011-06-01T16:27:05Z</time>
      </trkpt>
      <trkpt lat="59.3355003" lon="18.3453426">
        <ele>6.86646</ele>
        <time>2011-06-01T16:27:12Z</time>
      </trkpt>
      <trkpt lat="59.3351588" lon="18.3450629">
        <ele>6.86646</ele>
        <time>2011-06-01T16:27:18Z</time>
      </trkpt>
      <trkpt lat="59.3348334" lon="18.3450022">
        <ele>6.38586</ele>
        <time>2011-06-01T16:27:23Z</time>
      </trkpt>
      <trkpt lat="59.3343736" lon="18.3450374">
        <ele>4.94385</ele>
        <time>2011-06-01T16:27:29Z</time>
      </trkpt>
      <trkpt lat="59.3337482" lon="18.3451655">
        <ele>2.06006</ele>
        <time>2011-06-01T16:27:37Z</time>
      </trkpt>
      <trkpt lat="59.3333416" lon="18.3452978">
        <ele>0.137451</ele>
        <time>2011-06-01T16:27:42Z</time>
      </trkpt>
      <trkpt lat="59.3329352" lon="18.3456734">
        <ele>0</ele>
        <time>2011-06-01T16:27:47Z</time>
      </trkpt>
      <trkpt lat="59.3325615" lon="18.3460785">
        <ele>0</ele>
        <time>2011-06-01T16:27:52Z</time>
      </trkpt>
      <trkpt lat="59.332211" lon="18.3463473">
        <ele>0</ele>
        <time>2011-06-01T16:27:57Z</time>
      </trkpt>
      <trkpt lat="59.3320172" lon="18.3464775">
        <ele>0</ele>
        <time>2011-06-01T16:28:00Z</time>
      </trkpt>
      <trkpt lat="59.3318649" lon="18.3467605">
        <ele>0</ele>
        <time>2011-06-01T16:28:04Z</time>
      </trkpt>
      <trkpt lat="59.3318274" lon="18.3470661">
        <ele>0</ele>
        <time>2011-06-01T16:28:07Z</time>
      </trkpt>
      <trkpt lat="59.3318016" lon="18.3475539">
        <ele>0</ele>
        <time>2011-06-01T16:28:12Z</time>
      </trkpt>
      <trkpt lat="59.3317195" lon="18.3476224">
        <ele>0</ele>
        <time>2011-06-01T16:28:16Z</time>
      </trkpt>
      <trkpt lat="59.3316407" lon="18.3476986">
        <ele>0</ele>
        <time>2011-06-01T16:28:19Z</time>
      </trkpt>
      <trkpt lat="59.3315829" lon="18.3479402">
        <ele>0</ele>
        <time>2011-06-01T16:28:23Z</time>
      </trkpt>
      <trkpt lat="59.3314778" lon="18.3483346">
        <ele>0</ele>
        <time>2011-06-01T16:28:28Z</time>
      </trkpt>
      <trkpt lat="59.3314512" lon="18.3484267">
        <ele>0</ele>
        <time>2011-06-01T16:28:29Z</time>
      </trkpt>
      <trkpt lat="59.3312495" lon="18.348908">
        <ele>0</ele>
        <time>2011-06-01T16:28:35Z</time>
      </trkpt>
      <trkpt lat="59.3310569" lon="18.3493357">
        <ele>0</ele>
        <time>2011-06-01T16:28:40Z</time>
      </trkpt>
      <trkpt lat="59.3307253" lon="18.3500695">
        <ele>0</ele>
        <time>2011-06-01T16:28:48Z</time>
      </trkpt>
      <trkpt lat="59.3302854" lon="18.3508359">
        <ele>1.09863</ele>
        <time>2011-06-01T16:28:57Z</time>
      </trkpt>
      <trkpt lat="59.3300276" lon="18.3512339">
        <ele>3.02124</ele>
        <time>2011-06-01T16:29:03Z</time>
      </trkpt>
      <trkpt lat="59.3297736" lon="18.3517488">
        <ele>1.57935</ele>
        <time>2011-06-01T16:29:09Z</time>
      </trkpt>
      <trkpt lat="59.3294437" lon="18.3523041">
        <ele>0</ele>
        <time>2011-06-01T16:29:14Z</time>
      </trkpt>
      <trkpt lat="59.3289857" lon="18.3528974">
        <ele>0</ele>
        <time>2011-06-01T16:29:20Z</time>
      </trkpt>
      <trkpt lat="59.3286565" lon="18.3533132">
        <ele>0</ele>
        <time>2011-06-01T16:29:25Z</time>
      </trkpt>
      <trkpt lat="59.3284248" lon="18.3536556">
        <ele>1.09863</ele>
        <time>2011-06-01T16:29:30Z</time>
      </trkpt>
      <trkpt lat="59.3283917" lon="18.3537203">
        <ele>1.09863</ele>
        <time>2011-06-01T16:29:31Z</time>
      </trkpt>
      <trkpt lat="59.3282524" lon="18.3540752">
        <ele>3.02124</ele>
        <time>2011-06-01T16:29:37Z</time>
      </trkpt>
      <trkpt lat="59.3280788" lon="18.3545684">
        <ele>4.46326</ele>
        <time>2011-06-01T16:29:45Z</time>
      </trkpt>
      <trkpt lat="59.3279306" lon="18.3549563">
        <ele>4.46326</ele>
        <time>2011-06-01T16:29:50Z</time>
      </trkpt>
      <trkpt lat="59.3277645" lon="18.3552799">
        <ele>3.50195</ele>
        <time>2011-06-01T16:29:54Z</time>
      </trkpt>
      <trkpt lat="59.327594" lon="18.3557214">
        <ele>1.57935</ele>
        <time>2011-06-01T16:29:59Z</time>
      </trkpt>
      <trkpt lat="59.3275178" lon="18.356083">
        <ele>1.09863</ele>
        <time>2011-06-01T16:30:03Z</time>
      </trkpt>
      <trkpt lat="59.3274359" lon="18.3565497">
        <ele>1.09863</ele>
        <time>2011-06-01T16:30:08Z</time>
      </trkpt>
      <trkpt lat="59.3272557" lon="18.3574141">
        <ele>0</ele>
        <time>2011-06-01T16:30:16Z</time>
      </trkpt>
      <trkpt lat="59.3270775" lon="18.3583819">
        <ele>0</ele>
        <time>2011-06-01T16:30:25Z</time>
      </trkpt>
      <trkpt lat="59.3269437" lon="18.3592791">
        <ele>0</ele>
        <time>2011-06-01T16:30:33Z</time>
      </trkpt>
      <trkpt lat="59.3269361" lon="18.3593921">
        <ele>0</ele>
        <time>2011-06-01T16:30:34Z</time>
      </trkpt>
      <trkpt lat="59.3269742" lon="18.3599557">
        <ele>0.137451</ele>
        <time>2011-06-01T16:30:39Z</time>
      </trkpt>
      <trkpt lat="59.3271457" lon="18.3609031">
        <ele>1.09863</ele>
        <time>2011-06-01T16:30:48Z</time>
      </trkpt>
      <trkpt lat="59.3272732" lon="18.3616633">
        <ele>1.09863</ele>
        <time>2011-06-01T16:30:55Z</time>
      </trkpt>
      <trkpt lat="59.3274213" lon="18.3624825">
        <ele>0</ele>
        <time>2011-06-01T16:31:01Z</time>
      </trkpt>
      <trkpt lat="59.3276056" lon="18.3636616">
        <ele>0</ele>
        <time>2011-06-01T16:31:09Z</time>
      </trkpt>
      <trkpt lat="59.3278208" lon="18.3650714">
        <ele>0</ele>
        <time>2011-06-01T16:31:19Z</time>
      </trkpt>
      <trkpt lat="59.327925" lon="18.3657843">
        <ele>0</ele>
        <time>2011-06-01T16:31:25Z</time>
      </trkpt>
      <trkpt lat="59.3279585" lon="18.365992">
        <ele>0.137451</ele>
        <time>2011-06-01T16:31:27Z</time>
      </trkpt>
      <trkpt lat="59.3279791" lon="18.3661925">
        <ele>0.137451</ele>
        <time>2011-06-01T16:31:29Z</time>
      </trkpt>
      <trkpt lat="59.3280073" lon="18.3665953">
        <ele>2.06006</ele>
        <time>2011-06-01T16:31:33Z</time>
      </trkpt>
      <trkpt lat="59.328054" lon="18.3668949">
        <ele>2.06006</ele>
        <time>2011-06-01T16:31:36Z</time>
      </trkpt>
      <trkpt lat="59.3281195" lon="18.3679636">
        <ele>2.06006</ele>
        <time>2011-06-01T16:31:46Z</time>
      </trkpt>
      <trkpt lat="59.3281164" lon="18.3681908">
        <ele>1.57935</ele>
        <time>2011-06-01T16:31:48Z</time>
      </trkpt>
      <trkpt lat="59.3280116" lon="18.3688696">
        <ele>1.57935</ele>
        <time>2011-06-01T16:31:54Z</time>
      </trkpt>
      <trkpt lat="59.3277893" lon="18.3697111">
        <ele>2.06006</ele>
        <time>2011-06-01T16:32:02Z</time>
      </trkpt>
      <trkpt lat="59.3275849" lon="18.3704646">
        <ele>0</ele>
        <time>2011-06-01T16:32:08Z</time>
      </trkpt>
      <trkpt lat="59.3275095" lon="18.3707266">
        <ele>0</ele>
        <time>2011-06-01T16:32:10Z</time>
      </trkpt>
      <trkpt lat="59.3273002" lon="18.3711394">
        <ele>0</ele>
        <time>2011-06-01T16:32:14Z</time>
      </trkpt>
      <trkpt lat="59.3272428" lon="18.3712291">
        <ele>0</ele>
        <time>2011-06-01T16:32:15Z</time>
      </trkpt>
      <trkpt lat="59.3270728" lon="18.3718453">
        <ele>0</ele>
        <time>2011-06-01T16:32:20Z</time>
      </trkpt>
      <trkpt lat="59.3270204" lon="18.3721306">
        <ele>0</ele>
        <time>2011-06-01T16:32:22Z</time>
      </trkpt>
      <trkpt lat="59.3269815" lon="18.372568">
        <ele>0</ele>
        <time>2011-06-01T16:32:25Z</time>
      </trkpt>
      <trkpt lat="59.3268813" lon="18.3730145">
        <ele>0</ele>
        <time>2011-06-01T16:32:29Z</time>
      </trkpt>
      <trkpt lat="59.3268417" lon="18.3733388">
        <ele>0</ele>
        <time>2011-06-01T16:32:32Z</time>
      </trkpt>
      <trkpt lat="59.326848" lon="18.3735346">
        <ele>0</ele>
        <time>2011-06-01T16:32:34Z</time>
      </trkpt>
      <trkpt lat="59.3267724" lon="18.3740949">
        <ele>0</ele>
        <time>2011-06-01T16:32:40Z</time>
      </trkpt>
      <trkpt lat="59.3267702" lon="18.374636">
        <ele>0</ele>
        <time>2011-06-01T16:32:45Z</time>
      </trkpt>
      <trkpt lat="59.3267314" lon="18.3753379">
        <ele>0.137451</ele>
        <time>2011-06-01T16:32:51Z</time>
      </trkpt>
      <trkpt lat="59.3267206" lon="18.3759187">
        <ele>0.137451</ele>
        <time>2011-06-01T16:32:56Z</time>
      </trkpt>
      <trkpt lat="59.3267321" lon="18.3761377">
        <ele>0.618042</ele>
        <time>2011-06-01T16:32:58Z</time>
      </trkpt>
      <trkpt lat="59.3267558" lon="18.3763375">
        <ele>1.09863</ele>
        <time>2011-06-01T16:33:00Z</time>
      </trkpt>
      <trkpt lat="59.3268625" lon="18.3767874">
        <ele>3.02124</ele>
        <time>2011-06-01T16:33:05Z</time>
      </trkpt>
      <trkpt lat="59.3269976" lon="18.3771404">
        <ele>4.94385</ele>
        <time>2011-06-01T16:33:10Z</time>
      </trkpt>
      <trkpt lat="59.3271861" lon="18.3775343">
        <ele>8.78918</ele>
        <time>2011-06-01T16:33:18Z</time>
      </trkpt>
      <trkpt lat="59.3273069" lon="18.3780027">
        <ele>10.2312</ele>
        <time>2011-06-01T16:33:25Z</time>
      </trkpt>
      <trkpt lat="59.327409" lon="18.3787152">
        <ele>10.2312</ele>
        <time>2011-06-01T16:33:33Z</time>
      </trkpt>
      <trkpt lat="59.3274619" lon="18.379237">
        <ele>9.75061</ele>
        <time>2011-06-01T16:33:38Z</time>
      </trkpt>
      <trkpt lat="59.3274663" lon="18.3795613">
        <ele>9.2699</ele>
        <time>2011-06-01T16:33:41Z</time>
      </trkpt>
      <trkpt lat="59.3274573" lon="18.3799398">
        <ele>7.34717</ele>
        <time>2011-06-01T16:33:46Z</time>
      </trkpt>
      <trkpt lat="59.3274767" lon="18.3805283">
        <ele>6.38586</ele>
        <time>2011-06-01T16:33:52Z</time>
      </trkpt>
      <trkpt lat="59.3274935" lon="18.3814285">
        <ele>8.30859</ele>
        <time>2011-06-01T16:34:00Z</time>
      </trkpt>
      <trkpt lat="59.3274732" lon="18.3822746">
        <ele>9.2699</ele>
        <time>2011-06-01T16:34:08Z</time>
      </trkpt>
      <trkpt lat="59.3274363" lon="18.3824754">
        <ele>8.78918</ele>
        <time>2011-06-01T16:34:11Z</time>
      </trkpt>
      <trkpt lat="59.3273557" lon="18.383016">
        <ele>7.82788</ele>
        <time>2011-06-01T16:34:17Z</time>
      </trkpt>
      <trkpt lat="59.3272202" lon="18.3838912">
        <ele>5.42456</ele>
        <time>2011-06-01T16:34:24Z</time>
      </trkpt>
      <trkpt lat="59.3270908" lon="18.3847181">
        <ele>3.98267</ele>
        <time>2011-06-01T16:34:31Z</time>
      </trkpt>
      <trkpt lat="59.3270744" lon="18.3848087">
        <ele>3.98267</ele>
        <time>2011-06-01T16:34:32Z</time>
      </trkpt>
      <trkpt lat="59.3269131" lon="18.3851072">
        <ele>3.50195</ele>
        <time>2011-06-01T16:34:37Z</time>
      </trkpt>
      <trkpt lat="59.3266491" lon="18.3851408">
        <ele>1.57935</ele>
        <time>2011-06-01T16:34:43Z</time>
      </trkpt>
      <trkpt lat="59.3263335" lon="18.3851429">
        <ele>0.137451</ele>
        <time>2011-06-01T16:34:49Z</time>
      </trkpt>
      <trkpt lat="59.3262772" lon="18.3850942">
        <ele>0</ele>
        <time>2011-06-01T16:34:52Z</time>
      </trkpt>
      <trkpt lat="59.3262153" lon="18.385091">
        <ele>0</ele>
        <time>2011-06-01T16:34:56Z</time>
      </trkpt>
      <trkpt lat="59.3261042" lon="18.3851455">
        <ele>0</ele>
        <time>2011-06-01T16:35:00Z</time>
      </trkpt>
      <trkpt lat="59.3258701" lon="18.3851366">
        <ele>0</ele>
        <time>2011-06-01T16:35:05Z</time>
      </trkpt>
      <trkpt lat="59.3257617" lon="18.3851117">
        <ele>0</ele>
        <time>2011-06-01T16:35:07Z</time>
      </trkpt>
      <trkpt lat="59.3254112" lon="18.3848631">
        <ele>0</ele>
        <time>2011-06-01T16:35:13Z</time>
      </trkpt>
      <trkpt lat="59.3252065" lon="18.3847635">
        <ele>0</ele>
        <time>2011-06-01T16:35:17Z</time>
      </trkpt>
      <trkpt lat="59.3250635" lon="18.3845336">
        <ele>0</ele>
        <time>2011-06-01T16:35:21Z</time>
      </trkpt>
      <trkpt lat="59.3250141" lon="18.384347">
        <ele>0</ele>
        <time>2011-06-01T16:35:23Z</time>
      </trkpt>
      <trkpt lat="59.3249755" lon="18.3841586">
        <ele>0</ele>
        <time>2011-06-01T16:35:25Z</time>
      </trkpt>
      <trkpt lat="59.3248868" lon="18.3838458">
        <ele>0</ele>
        <time>2011-06-01T16:35:30Z</time>
      </trkpt>
      <trkpt lat="59.3247324" lon="18.3831343">
        <ele>0</ele>
        <time>2011-06-01T16:35:38Z</time>
      </trkpt>
      <trkpt lat="59.3245258" lon="18.3821713">
        <ele>0</ele>
        <time>2011-06-01T16:35:47Z</time>
      </trkpt>
      <trkpt lat="59.324481" lon="18.38194">
        <ele>0</ele>
        <time>2011-06-01T16:35:49Z</time>
      </trkpt>
      <trkpt lat="59.3242873" lon="18.3814677">
        <ele>0</ele>
        <time>2011-06-01T16:35:54Z</time>
      </trkpt>
      <trkpt lat="59.323726" lon="18.3808057">
        <ele>0</ele>
        <time>2011-06-01T16:36:04Z</time>
      </trkpt>
      <trkpt lat="59.3236719" lon="18.3807365">
        <ele>0</ele>
        <time>2011-06-01T16:36:05Z</time>
      </trkpt>
      <trkpt lat="59.3234534" lon="18.3802642">
        <ele>0.137451</ele>
        <time>2011-06-01T16:36:10Z</time>
      </trkpt>
      <trkpt lat="59.3233908" lon="18.3797706">
        <ele>0.137451</ele>
        <time>2011-06-01T16:36:14Z</time>
      </trkpt>
      <trkpt lat="59.3234139" lon="18.3786438">
        <ele>1.09863</ele>
        <time>2011-06-01T16:36:23Z</time>
      </trkpt>
      <trkpt lat="59.3235031" lon="18.3779421">
        <ele>3.02124</ele>
        <time>2011-06-01T16:36:30Z</time>
      </trkpt>
      <trkpt lat="59.323497" lon="18.3775917">
        <ele>3.50195</ele>
        <time>2011-06-01T16:36:34Z</time>
      </trkpt>
      <trkpt lat="59.3233733" lon="18.3769692">
        <ele>3.98267</ele>
        <time>2011-06-01T16:36:42Z</time>
      </trkpt>
      <trkpt lat="59.3232454" lon="18.3765502">
        <ele>3.98267</ele>
        <time>2011-06-01T16:36:48Z</time>
      </trkpt>
      <trkpt lat="59.3230441" lon="18.3762832">
        <ele>3.50195</ele>
        <time>2011-06-01T16:36:53Z</time>
      </trkpt>
      <trkpt lat="59.3227848" lon="18.376106">
        <ele>1.09863</ele>
        <time>2011-06-01T16:36:57Z</time>
      </trkpt>
      <trkpt lat="59.3223014" lon="18.3755311">
        <ele>0</ele>
        <time>2011-06-01T16:37:04Z</time>
      </trkpt>
      <trkpt lat="59.3220549" lon="18.3752354">
        <ele>0</ele>
        <time>2011-06-01T16:37:08Z</time>
      </trkpt>
      <trkpt lat="59.3216933" lon="18.3750396">
        <ele>0.137451</ele>
        <time>2011-06-01T16:37:14Z</time>
      </trkpt>
      <trkpt lat="59.3216399" lon="18.3750159">
        <ele>0.137451</ele>
        <time>2011-06-01T16:37:15Z</time>
      </trkpt>
      <trkpt lat="59.3214755" lon="18.3747779">
        <ele>0.137451</ele>
        <time>2011-06-01T16:37:19Z</time>
      </trkpt>
      <trkpt lat="59.3213476" lon="18.3744831">
        <ele>0.137451</ele>
        <time>2011-06-01T16:37:23Z</time>
      </trkpt>
      <trkpt lat="59.3212441" lon="18.3743064">
        <ele>0</ele>
        <time>2011-06-01T16:37:27Z</time>
      </trkpt>
      <trkpt lat="59.3211327" lon="18.3740671">
        <ele>0</ele>
        <time>2011-06-01T16:37:33Z</time>
      </trkpt>
      <trkpt lat="59.3210666" lon="18.3737823">
        <ele>0</ele>
        <time>2011-06-01T16:37:38Z</time>
      </trkpt>
      <trkpt lat="59.3210519" lon="18.3736775">
        <ele>0</ele>
        <time>2011-06-01T16:37:43Z</time>
      </trkpt>
      <trkpt lat="59.3210416" lon="18.3736304">
        <ele>0</ele>
        <time>2011-06-01T16:37:49Z</time>
      </trkpt>
      <trkpt lat="59.3210281" lon="18.3736112">
        <ele>0</ele>
        <time>2011-06-01T16:37:55Z</time>
      </trkpt>
      <trkpt lat="59.3209904" lon="18.373427">
        <ele>0</ele>
        <time>2011-06-01T16:38:01Z</time>
      </trkpt>
      <trkpt lat="59.320909" lon="18.3730519">
        <ele>0</ele>
        <time>2011-06-01T16:38:08Z</time>
      </trkpt>
      <trkpt lat="59.3208868" lon="18.3729932">
        <ele>0</ele>
        <time>2011-06-01T16:38:09Z</time>
      </trkpt>
      <trkpt lat="59.3207261" lon="18.3729375">
        <ele>0</ele>
        <time>2011-06-01T16:38:13Z</time>
      </trkpt>
      <trkpt lat="59.3206283" lon="18.372994">
        <ele>0</ele>
        <time>2011-06-01T16:38:15Z</time>
      </trkpt>
      <trkpt lat="59.3203725" lon="18.3732238">
        <ele>0</ele>
        <time>2011-06-01T16:38:20Z</time>
      </trkpt>
      <trkpt lat="59.3200445" lon="18.3733328">
        <ele>0</ele>
        <time>2011-06-01T16:38:26Z</time>
      </trkpt>
      <trkpt lat="59.3197487" lon="18.3733755">
        <ele>1.09863</ele>
        <time>2011-06-01T16:38:32Z</time>
      </trkpt>
      <trkpt lat="59.3194002" lon="18.373442">
        <ele>3.98267</ele>
        <time>2011-06-01T16:38:40Z</time>
      </trkpt>
      <trkpt lat="59.319214" lon="18.3734959">
        <ele>5.42456</ele>
        <time>2011-06-01T16:38:45Z</time>
      </trkpt>
      <trkpt lat="59.3189058" lon="18.3735529">
        <ele>5.90527</ele>
        <time>2011-06-01T16:38:52Z</time>
      </trkpt>
      <trkpt lat="59.3188053" lon="18.3736135">
        <ele>5.42456</ele>
        <time>2011-06-01T16:38:54Z</time>
      </trkpt>
      <trkpt lat="59.3184011" lon="18.3737228">
        <ele>3.50195</ele>
        <time>2011-06-01T16:39:00Z</time>
      </trkpt>
      <trkpt lat="59.3182832" lon="18.3737478">
        <ele>3.50195</ele>
        <time>2011-06-01T16:39:02Z</time>
      </trkpt>
      <trkpt lat="59.3182045" lon="18.3737762">
        <ele>3.50195</ele>
        <time>2011-06-01T16:39:04Z</time>
      </trkpt>
      <trkpt lat="59.3181188" lon="18.373962">
        <ele>2.54065</ele>
        <time>2011-06-01T16:39:08Z</time>
      </trkpt>
      <trkpt lat="59.3181285" lon="18.3742387">
        <ele>2.06006</ele>
        <time>2011-06-01T16:39:11Z</time>
      </trkpt>
      <trkpt lat="59.3181946" lon="18.3750246">
        <ele>0.618042</ele>
        <time>2011-06-01T16:39:18Z</time>
      </trkpt>
      <trkpt lat="59.3182923" lon="18.3757155">
        <ele>0.618042</ele>
        <time>2011-06-01T16:39:24Z</time>
      </trkpt>
      <trkpt lat="59.3184631" lon="18.376235">
        <ele>1.09863</ele>
        <time>2011-06-01T16:39:29Z</time>
      </trkpt>
      <trkpt lat="59.3187568" lon="18.3768185">
        <ele>2.06006</ele>
        <time>2011-06-01T16:39:36Z</time>
      </trkpt>
      <trkpt lat="59.3189267" lon="18.3773287">
        <ele>3.50195</ele>
        <time>2011-06-01T16:39:42Z</time>
      </trkpt>
      <trkpt lat="59.3189599" lon="18.3775058">
        <ele>4.46326</ele>
        <time>2011-06-01T16:39:44Z</time>
      </trkpt>
      <trkpt lat="59.3189924" lon="18.3778596">
        <ele>5.90527</ele>
        <time>2011-06-01T16:39:48Z</time>
      </trkpt>
      <trkpt lat="59.3189687" lon="18.3784957">
        <ele>7.34717</ele>
        <time>2011-06-01T16:39:55Z</time>
      </trkpt>
      <trkpt lat="59.3188933" lon="18.3790645">
        <ele>8.30859</ele>
        <time>2011-06-01T16:40:01Z</time>
      </trkpt>
      <trkpt lat="59.3188625" lon="18.3793572">
        <ele>9.2699</ele>
        <time>2011-06-01T16:40:04Z</time>
      </trkpt>
      <trkpt lat="59.3189054" lon="18.3797053">
        <ele>9.75061</ele>
        <time>2011-06-01T16:40:08Z</time>
      </trkpt>
      <trkpt lat="59.3189834" lon="18.3798125">
        <ele>10.2312</ele>
        <time>2011-06-01T16:40:10Z</time>
      </trkpt>
      <trkpt lat="59.3193161" lon="18.380248">
        <ele>11.1925</ele>
        <time>2011-06-01T16:40:18Z</time>
      </trkpt>
      <trkpt lat="59.3195808" lon="18.3806354">
        <ele>11.1925</ele>
        <time>2011-06-01T16:40:24Z</time>
      </trkpt>
      <trkpt lat="59.3196807" lon="18.3810191">
        <ele>11.6732</ele>
        <time>2011-06-01T16:40:28Z</time>
      </trkpt>
      <trkpt lat="59.3196243" lon="18.3813917">
        <ele>12.1538</ele>
        <time>2011-06-01T16:40:32Z</time>
      </trkpt>
      <trkpt lat="59.3195917" lon="18.3814577">
        <ele>12.1538</ele>
        <time>2011-06-01T16:40:33Z</time>
      </trkpt>
      <trkpt lat="59.3193139" lon="18.3819908">
        <ele>11.1925</ele>
        <time>2011-06-01T16:40:41Z</time>
      </trkpt>
      <trkpt lat="59.3190328" lon="18.38256">
        <ele>10.2312</ele>
        <time>2011-06-01T16:40:49Z</time>
      </trkpt>
      <trkpt lat="59.3187784" lon="18.3830118">
        <ele>8.30859</ele>
        <time>2011-06-01T16:40:55Z</time>
      </trkpt>
      <trkpt lat="59.3187342" lon="18.3831017">
        <ele>7.82788</ele>
        <time>2011-06-01T16:40:56Z</time>
      </trkpt>
      <trkpt lat="59.318665" lon="18.3835634">
        <ele>5.90527</ele>
        <time>2011-06-01T16:41:00Z</time>
      </trkpt>
      <trkpt lat="59.3186795" lon="18.3836949">
        <ele>5.42456</ele>
        <time>2011-06-01T16:41:01Z</time>
      </trkpt>
      <trkpt lat="59.3188732" lon="18.3846895">
        <ele>4.46326</ele>
        <time>2011-06-01T16:41:08Z</time>
      </trkpt>
      <trkpt lat="59.3190985" lon="18.3857169">
        <ele>4.46326</ele>
        <time>2011-06-01T16:41:16Z</time>
      </trkpt>
      <trkpt lat="59.3193028" lon="18.3866051">
        <ele>4.46326</ele>
        <time>2011-06-01T16:41:23Z</time>
      </trkpt>
      <trkpt lat="59.3194414" lon="18.3872126">
        <ele>4.94385</ele>
        <time>2011-06-01T16:41:28Z</time>
      </trkpt>
      <trkpt lat="59.319631" lon="18.3874107">
        <ele>4.94385</ele>
        <time>2011-06-01T16:41:32Z</time>
      </trkpt>
      <trkpt lat="59.3198107" lon="18.3874718">
        <ele>4.46326</ele>
        <time>2011-06-01T16:41:35Z</time>
      </trkpt>
      <trkpt lat="59.3201122" lon="18.3874314">
        <ele>3.98267</ele>
        <time>2011-06-01T16:41:40Z</time>
      </trkpt>
      <trkpt lat="59.3202267" lon="18.3873661">
        <ele>3.98267</ele>
        <time>2011-06-01T16:41:42Z</time>
      </trkpt>
      <trkpt lat="59.3205867" lon="18.3873283">
        <ele>3.50195</ele>
        <time>2011-06-01T16:41:48Z</time>
      </trkpt>
      <trkpt lat="59.3208812" lon="18.3872806">
        <ele>3.02124</ele>
        <time>2011-06-01T16:41:54Z</time>
      </trkpt>
      <trkpt lat="59.3209784" lon="18.3873398">
        <ele>2.54065</ele>
        <time>2011-06-01T16:41:59Z</time>
      </trkpt>
      <trkpt lat="59.3209778" lon="18.3873449">
        <ele>2.06006</ele>
        <time>2011-06-01T16:42:03Z</time>
      </trkpt>
      <trkpt lat="59.3209852" lon="18.3874035">
        <ele>2.06006</ele>
        <time>2011-06-01T16:42:11Z</time>
      </trkpt>
      <trkpt lat="59.3210041" lon="18.3875501">
        <ele>2.06006</ele>
        <time>2011-06-01T16:42:14Z</time>
      </trkpt>
      <trkpt lat="59.3211313" lon="18.3876791">
        <ele>2.06006</ele>
        <time>2011-06-01T16:42:18Z</time>
      </trkpt>
      <trkpt lat="59.3215144" lon="18.3878182">
        <ele>2.54065</ele>
        <time>2011-06-01T16:42:26Z</time>
      </trkpt>
      <trkpt lat="59.3216983" lon="18.3879741">
        <ele>2.54065</ele>
        <time>2011-06-01T16:42:30Z</time>
      </trkpt>
      <trkpt lat="59.3217959" lon="18.3881898">
        <ele>2.06006</ele>
        <time>2011-06-01T16:42:35Z</time>
      </trkpt>
      <trkpt lat="59.3217833" lon="18.3882593">
        <ele>1.57935</ele>
        <time>2011-06-01T16:42:37Z</time>
      </trkpt>
      <trkpt lat="59.3216506" lon="18.3886366">
        <ele>0.618042</ele>
        <time>2011-06-01T16:42:43Z</time>
      </trkpt>
      <trkpt lat="59.3214627" lon="18.3891424">
        <ele>0</ele>
        <time>2011-06-01T16:42:49Z</time>
      </trkpt>
      <trkpt lat="59.321214" lon="18.3899148">
        <ele>0</ele>
        <time>2011-06-01T16:42:57Z</time>
      </trkpt>
      <trkpt lat="59.3209342" lon="18.3905436">
        <ele>0</ele>
        <time>2011-06-01T16:43:04Z</time>
      </trkpt>
      <trkpt lat="59.3207837" lon="18.3907688">
        <ele>0</ele>
        <time>2011-06-01T16:43:07Z</time>
      </trkpt>
      <trkpt lat="59.320569" lon="18.3911424">
        <ele>0.137451</ele>
        <time>2011-06-01T16:43:12Z</time>
      </trkpt>
      <trkpt lat="59.3203548" lon="18.3916309">
        <ele>3.02124</ele>
        <time>2011-06-01T16:43:19Z</time>
      </trkpt>
      <trkpt lat="59.3203012" lon="18.3918805">
        <ele>4.94385</ele>
        <time>2011-06-01T16:43:23Z</time>
      </trkpt>
      <trkpt lat="59.3202965" lon="18.3922597">
        <ele>6.86646</ele>
        <time>2011-06-01T16:43:29Z</time>
      </trkpt>
      <trkpt lat="59.3203064" lon="18.3927006">
        <ele>10.2312</ele>
        <time>2011-06-01T16:43:36Z</time>
      </trkpt>
      <trkpt lat="59.3202366" lon="18.3931927">
        <ele>11.1925</ele>
        <time>2011-06-01T16:43:42Z</time>
      </trkpt>
      <trkpt lat="59.320052" lon="18.3938106">
        <ele>11.6732</ele>
        <time>2011-06-01T16:43:49Z</time>
      </trkpt>
      <trkpt lat="59.3198331" lon="18.3944981">
        <ele>12.1538</ele>
        <time>2011-06-01T16:43:57Z</time>
      </trkpt>
      <trkpt lat="59.3198106" lon="18.3945799">
        <ele>12.6344</ele>
        <time>2011-06-01T16:43:58Z</time>
      </trkpt>
      <trkpt lat="59.3196449" lon="18.395112">
        <ele>16.4797</ele>
        <time>2011-06-01T16:44:04Z</time>
      </trkpt>
      <trkpt lat="59.3195637" lon="18.3953886">
        <ele>17.4412</ele>
        <time>2011-06-01T16:44:07Z</time>
      </trkpt>
      <trkpt lat="59.3194596" lon="18.3960722">
        <ele>16.9604</ele>
        <time>2011-06-01T16:44:14Z</time>
      </trkpt>
      <trkpt lat="59.3193932" lon="18.3968391">
        <ele>17.4412</ele>
        <time>2011-06-01T16:44:22Z</time>
      </trkpt>
      <trkpt lat="59.3193691" lon="18.3970196">
        <ele>17.4412</ele>
        <time>2011-06-01T16:44:24Z</time>
      </trkpt>
      <trkpt lat="59.3193357" lon="18.3973672">
        <ele>17.9218</ele>
        <time>2011-06-01T16:44:28Z</time>
      </trkpt>
      <trkpt lat="59.3192673" lon="18.3980948">
        <ele>18.4023</ele>
        <time>2011-06-01T16:44:36Z</time>
      </trkpt>
      <trkpt lat="59.3191835" lon="18.3989593">
        <ele>19.8444</ele>
        <time>2011-06-01T16:44:45Z</time>
      </trkpt>
      <trkpt lat="59.3191022" lon="18.3996542">
        <ele>20.8057</ele>
        <time>2011-06-01T16:44:52Z</time>
      </trkpt>
      <trkpt lat="59.3190552" lon="18.400204">
        <ele>18.4023</ele>
        <time>2011-06-01T16:44:58Z</time>
      </trkpt>
      <trkpt lat="59.3190067" lon="18.4008581">
        <ele>15.999</ele>
        <time>2011-06-01T16:45:04Z</time>
      </trkpt>
      <trkpt lat="59.31892" lon="18.401633">
        <ele>14.557</ele>
        <time>2011-06-01T16:45:11Z</time>
      </trkpt>
      <trkpt lat="59.3188846" lon="18.40213">
        <ele>12.6344</ele>
        <time>2011-06-01T16:45:16Z</time>
      </trkpt>
      <trkpt lat="59.3188204" lon="18.4024649">
        <ele>11.6732</ele>
        <time>2011-06-01T16:45:20Z</time>
      </trkpt>
      <trkpt lat="59.3187708" lon="18.4030293">
        <ele>11.1925</ele>
        <time>2011-06-01T16:45:26Z</time>
      </trkpt>
      <trkpt lat="59.3188416" lon="18.4034535">
        <ele>11.6732</ele>
        <time>2011-06-01T16:45:30Z</time>
      </trkpt>
      <trkpt lat="59.3190789" lon="18.4044128">
        <ele>12.6344</ele>
        <time>2011-06-01T16:45:39Z</time>
      </trkpt>
      <trkpt lat="59.3191061" lon="18.4045195">
        <ele>12.6344</ele>
        <time>2011-06-01T16:45:40Z</time>
      </trkpt>
      <trkpt lat="59.319169" lon="18.4052069">
        <ele>12.1538</ele>
        <time>2011-06-01T16:45:46Z</time>
      </trkpt>
      <trkpt lat="59.3191986" lon="18.4059133">
        <ele>12.1538</ele>
        <time>2011-06-01T16:45:53Z</time>
      </trkpt>
      <trkpt lat="59.3191566" lon="18.4063484">
        <ele>12.1538</ele>
        <time>2011-06-01T16:45:58Z</time>
      </trkpt>
      <trkpt lat="59.3191275" lon="18.4064844">
        <ele>12.1538</ele>
        <time>2011-06-01T16:46:00Z</time>
      </trkpt>
      <trkpt lat="59.3191116" lon="18.4065833">
        <ele>12.1538</ele>
        <time>2011-06-01T16:46:03Z</time>
      </trkpt>
      <trkpt lat="59.3191348" lon="18.4066542">
        <ele>12.6344</ele>
        <time>2011-06-01T16:46:11Z</time>
      </trkpt>
      <trkpt lat="59.3192022" lon="18.4067162">
        <ele>13.1151</ele>
        <time>2011-06-01T16:46:15Z</time>
      </trkpt>
      <trkpt lat="59.3192196" lon="18.4068874">
        <ele>13.5958</ele>
        <time>2011-06-01T16:46:19Z</time>
      </trkpt>
      <trkpt lat="59.3191291" lon="18.4072505">
        <ele>13.1151</ele>
        <time>2011-06-01T16:46:24Z</time>
      </trkpt>
      <trkpt lat="59.3189333" lon="18.407847">
        <ele>12.6344</ele>
        <time>2011-06-01T16:46:31Z</time>
      </trkpt>
      <trkpt lat="59.3185928" lon="18.4087409">
        <ele>13.1151</ele>
        <time>2011-06-01T16:46:41Z</time>
      </trkpt>
      <trkpt lat="59.3183806" lon="18.409538">
        <ele>14.557</ele>
        <time>2011-06-01T16:46:49Z</time>
      </trkpt>
      <trkpt lat="59.3181544" lon="18.4104725">
        <ele>14.557</ele>
        <time>2011-06-01T16:46:58Z</time>
      </trkpt>
      <trkpt lat="59.3180615" lon="18.4107761">
        <ele>14.557</ele>
        <time>2011-06-01T16:47:01Z</time>
      </trkpt>
      <trkpt lat="59.3178071" lon="18.4118054">
        <ele>14.0764</ele>
        <time>2011-06-01T16:47:10Z</time>
      </trkpt>
      <trkpt lat="59.3175205" lon="18.4130437">
        <ele>13.1151</ele>
        <time>2011-06-01T16:47:20Z</time>
      </trkpt>
      <trkpt lat="59.3172612" lon="18.4140339">
        <ele>12.1538</ele>
        <time>2011-06-01T16:47:28Z</time>
      </trkpt>
      <trkpt lat="59.3171535" lon="18.4143906">
        <ele>11.6732</ele>
        <time>2011-06-01T16:47:31Z</time>
      </trkpt>
      <trkpt lat="59.3170955" lon="18.4146392">
        <ele>11.6732</ele>
        <time>2011-06-01T16:47:33Z</time>
      </trkpt>
      <trkpt lat="59.3168602" lon="18.4152869">
        <ele>11.6732</ele>
        <time>2011-06-01T16:47:39Z</time>
      </trkpt>
      <trkpt lat="59.3167845" lon="18.4154598">
        <ele>11.6732</ele>
        <time>2011-06-01T16:47:41Z</time>
      </trkpt>
      <trkpt lat="59.3163713" lon="18.416141">
        <ele>12.6344</ele>
        <time>2011-06-01T16:47:50Z</time>
      </trkpt>
      <trkpt lat="59.3159092" lon="18.4168713">
        <ele>12.1538</ele>
        <time>2011-06-01T16:47:59Z</time>
      </trkpt>
      <trkpt lat="59.3154699" lon="18.4175028">
        <ele>12.6344</ele>
        <time>2011-06-01T16:48:07Z</time>
      </trkpt>
      <trkpt lat="59.3149592" lon="18.4182946">
        <ele>12.6344</ele>
        <time>2011-06-01T16:48:17Z</time>
      </trkpt>
      <trkpt lat="59.3146124" lon="18.4189244">
        <ele>12.1538</ele>
        <time>2011-06-01T16:48:24Z</time>
      </trkpt>
      <trkpt lat="59.3141359" lon="18.4199985">
        <ele>11.1925</ele>
        <time>2011-06-01T16:48:34Z</time>
      </trkpt>
      <trkpt lat="59.314061" lon="18.4202323">
        <ele>11.1925</ele>
        <time>2011-06-01T16:48:36Z</time>
      </trkpt>
      <trkpt lat="59.3138013" lon="18.4213984">
        <ele>9.75061</ele>
        <time>2011-06-01T16:48:45Z</time>
      </trkpt>
      <trkpt lat="59.3134726" lon="18.422454">
        <ele>9.2699</ele>
        <time>2011-06-01T16:48:54Z</time>
      </trkpt>
      <trkpt lat="59.3130867" lon="18.4234118">
        <ele>7.82788</ele>
        <time>2011-06-01T16:49:03Z</time>
      </trkpt>
      <trkpt lat="59.3129817" lon="18.4238951">
        <ele>7.82788</ele>
        <time>2011-06-01T16:49:07Z</time>
      </trkpt>
      <trkpt lat="59.3129881" lon="18.4245037">
        <ele>7.34717</ele>
        <time>2011-06-01T16:49:12Z</time>
      </trkpt>
      <trkpt lat="59.3129007" lon="18.4248902">
        <ele>6.86646</ele>
        <time>2011-06-01T16:49:16Z</time>
      </trkpt>
      <trkpt lat="59.3127358" lon="18.4254555">
        <ele>7.82788</ele>
        <time>2011-06-01T16:49:22Z</time>
      </trkpt>
      <trkpt lat="59.3127078" lon="18.4259641">
        <ele>8.30859</ele>
        <time>2011-06-01T16:49:27Z</time>
      </trkpt>
      <trkpt lat="59.3126823" lon="18.426536">
        <ele>9.2699</ele>
        <time>2011-06-01T16:49:33Z</time>
      </trkpt>
      <trkpt lat="59.3126766" lon="18.426686">
        <ele>9.2699</ele>
        <time>2011-06-01T16:49:35Z</time>
      </trkpt>
      <trkpt lat="59.3126041" lon="18.4270463">
        <ele>9.75061</ele>
        <time>2011-06-01T16:49:40Z</time>
      </trkpt>
      <trkpt lat="59.312528" lon="18.4274822">
        <ele>10.7118</ele>
        <time>2011-06-01T16:49:47Z</time>
      </trkpt>
      <trkpt lat="59.3124659" lon="18.4280582">
        <ele>11.6732</ele>
        <time>2011-06-01T16:49:54Z</time>
      </trkpt>
      <trkpt lat="59.3122835" lon="18.4287143">
        <ele>13.5958</ele>
        <time>2011-06-01T16:50:02Z</time>
      </trkpt>
      <trkpt lat="59.3121495" lon="18.4291167">
        <ele>14.557</ele>
        <time>2011-06-01T16:50:07Z</time>
      </trkpt>
      <trkpt lat="59.312009" lon="18.4293931">
        <ele>15.0377</ele>
        <time>2011-06-01T16:50:11Z</time>
      </trkpt>
      <trkpt lat="59.3119582" lon="18.4297645">
        <ele>15.0377</ele>
        <time>2011-06-01T16:50:15Z</time>
      </trkpt>
      <trkpt lat="59.312076" lon="18.4307431">
        <ele>15.5184</ele>
        <time>2011-06-01T16:50:24Z</time>
      </trkpt>
      <trkpt lat="59.3121726" lon="18.4315642">
        <ele>15.5184</ele>
        <time>2011-06-01T16:50:31Z</time>
      </trkpt>
      <trkpt lat="59.3122663" lon="18.432445">
        <ele>15.0377</ele>
        <time>2011-06-01T16:50:38Z</time>
      </trkpt>
      <trkpt lat="59.3123614" lon="18.433316">
        <ele>15.0377</ele>
        <time>2011-06-01T16:50:45Z</time>
      </trkpt>
      <trkpt lat="59.3123438" lon="18.4336778">
        <ele>14.557</ele>
        <time>2011-06-01T16:50:49Z</time>
      </trkpt>
      <trkpt lat="59.3123519" lon="18.4337555">
        <ele>14.557</ele>
        <time>2011-06-01T16:50:50Z</time>
      </trkpt>
      <trkpt lat="59.3124332" lon="18.4343196">
        <ele>14.557</ele>
        <time>2011-06-01T16:50:57Z</time>
      </trkpt>
      <trkpt lat="59.3125416" lon="18.4348688">
        <ele>15.0377</ele>
        <time>2011-06-01T16:51:04Z</time>
      </trkpt>
      <trkpt lat="59.3126829" lon="18.4357053">
        <ele>15.5184</ele>
        <time>2011-06-01T16:51:13Z</time>
      </trkpt>
      <trkpt lat="59.312812" lon="18.4365226">
        <ele>14.557</ele>
        <time>2011-06-01T16:51:21Z</time>
      </trkpt>
      <trkpt lat="59.3129301" lon="18.4373208">
        <ele>12.6344</ele>
        <time>2011-06-01T16:51:29Z</time>
      </trkpt>
      <trkpt lat="59.3129941" lon="18.4377033">
        <ele>11.6732</ele>
        <time>2011-06-01T16:51:34Z</time>
      </trkpt>
      <trkpt lat="59.3130046" lon="18.4377716">
        <ele>11.6732</ele>
        <time>2011-06-01T16:51:35Z</time>
      </trkpt>
      <trkpt lat="59.3130359" lon="18.4379208">
        <ele>11.1925</ele>
        <time>2011-06-01T16:51:37Z</time>
      </trkpt>
      <trkpt lat="59.3131585" lon="18.4387024">
        <ele>10.2312</ele>
        <time>2011-06-01T16:51:44Z</time>
      </trkpt>
      <trkpt lat="59.3133044" lon="18.4395995">
        <ele>8.30859</ele>
        <time>2011-06-01T16:51:51Z</time>
      </trkpt>
      <trkpt lat="59.3134199" lon="18.4403006">
        <ele>7.34717</ele>
        <time>2011-06-01T16:51:57Z</time>
      </trkpt>
      <trkpt lat="59.3134967" lon="18.4408227">
        <ele>6.86646</ele>
        <time>2011-06-01T16:52:02Z</time>
      </trkpt>
      <trkpt lat="59.3135145" lon="18.4410215">
        <ele>5.90527</ele>
        <time>2011-06-01T16:52:05Z</time>
      </trkpt>
      <trkpt lat="59.3135314" lon="18.4413459">
        <ele>5.42456</ele>
        <time>2011-06-01T16:52:09Z</time>
      </trkpt>
      <trkpt lat="59.3135155" lon="18.4422016">
        <ele>4.94385</ele>
        <time>2011-06-01T16:52:16Z</time>
      </trkpt>
      <trkpt lat="59.3134987" lon="18.4431225">
        <ele>3.50195</ele>
        <time>2011-06-01T16:52:23Z</time>
      </trkpt>
      <trkpt lat="59.3134614" lon="18.4442188">
        <ele>3.02124</ele>
        <time>2011-06-01T16:52:31Z</time>
      </trkpt>
      <trkpt lat="59.3134368" lon="18.4452158">
        <ele>3.02124</ele>
        <time>2011-06-01T16:52:39Z</time>
      </trkpt>
      <trkpt lat="59.3134247" lon="18.4461925">
        <ele>2.06006</ele>
        <time>2011-06-01T16:52:47Z</time>
      </trkpt>
      <trkpt lat="59.3134092" lon="18.4469663">
        <ele>2.06006</ele>
        <time>2011-06-01T16:52:54Z</time>
      </trkpt>
      <trkpt lat="59.3134195" lon="18.4472502">
        <ele>2.54065</ele>
        <time>2011-06-01T16:52:57Z</time>
      </trkpt>
      <trkpt lat="59.313408" lon="18.4473774">
        <ele>2.06006</ele>
        <time>2011-06-01T16:52:59Z</time>
      </trkpt>
      <trkpt lat="59.3133745" lon="18.4481344">
        <ele>2.54065</ele>
        <time>2011-06-01T16:53:08Z</time>
      </trkpt>
      <trkpt lat="59.3133654" lon="18.4484112">
        <ele>3.02124</ele>
        <time>2011-06-01T16:53:11Z</time>
      </trkpt>
      <trkpt lat="59.3133741" lon="18.4487294">
        <ele>2.54065</ele>
        <time>2011-06-01T16:53:15Z</time>
      </trkpt>
      <trkpt lat="59.3133481" lon="18.4488705">
        <ele>3.02124</ele>
        <time>2011-06-01T16:53:17Z</time>
      </trkpt>
      <trkpt lat="59.3133495" lon="18.4491978">
        <ele>3.02124</ele>
        <time>2011-06-01T16:53:21Z</time>
      </trkpt>
      <trkpt lat="59.3133466" lon="18.449982">
        <ele>3.98267</ele>
        <time>2011-06-01T16:53:30Z</time>
      </trkpt>
      <trkpt lat="59.3133026" lon="18.4506861">
        <ele>4.46326</ele>
        <time>2011-06-01T16:53:37Z</time>
      </trkpt>
      <trkpt lat="59.3132942" lon="18.4514239">
        <ele>3.50195</ele>
        <time>2011-06-01T16:53:44Z</time>
      </trkpt>
      <trkpt lat="59.3132874" lon="18.4523043">
        <ele>2.54065</ele>
        <time>2011-06-01T16:53:52Z</time>
      </trkpt>
      <trkpt lat="59.3133638" lon="18.4528587">
        <ele>3.02124</ele>
        <time>2011-06-01T16:53:57Z</time>
      </trkpt>
      <trkpt lat="59.313361" lon="18.453256">
        <ele>3.50195</ele>
        <time>2011-06-01T16:54:01Z</time>
      </trkpt>
      <trkpt lat="59.3132535" lon="18.4535892">
        <ele>3.02124</ele>
        <time>2011-06-01T16:54:05Z</time>
      </trkpt>
      <trkpt lat="59.3132383" lon="18.4537844">
        <ele>3.02124</ele>
        <time>2011-06-01T16:54:07Z</time>
      </trkpt>
      <trkpt lat="59.3132478" lon="18.4546717">
        <ele>3.50195</ele>
        <time>2011-06-01T16:54:15Z</time>
      </trkpt>
      <trkpt lat="59.3132305" lon="18.4553625">
        <ele>2.54065</ele>
        <time>2011-06-01T16:54:21Z</time>
      </trkpt>
      <trkpt lat="59.3132237" lon="18.4554491">
        <ele>2.54065</ele>
        <time>2011-06-01T16:54:22Z</time>
      </trkpt>
      <trkpt lat="59.3132148" lon="18.455616">
        <ele>2.54065</ele>
        <time>2011-06-01T16:54:26Z</time>
      </trkpt>
      <trkpt lat="59.3132052" lon="18.4556286">
        <ele>1.57935</ele>
        <time>2011-06-01T16:54:32Z</time>
      </trkpt>
      <trkpt lat="59.3131927" lon="18.4556298">
        <ele>1.09863</ele>
        <time>2011-06-01T16:54:40Z</time>
      </trkpt>
      <trkpt lat="59.3130978" lon="18.4556241">
        <ele>1.57935</ele>
        <time>2011-06-01T16:54:45Z</time>
      </trkpt>
      <trkpt lat="59.3130347" lon="18.4558125">
        <ele>2.06006</ele>
        <time>2011-06-01T16:54:49Z</time>
      </trkpt>
      <trkpt lat="59.31303" lon="18.4558988">
        <ele>2.06006</ele>
        <time>2011-06-01T16:54:50Z</time>
      </trkpt>
      <trkpt lat="59.3130206" lon="18.4567961">
        <ele>1.57935</ele>
        <time>2011-06-01T16:54:59Z</time>
      </trkpt>
      <trkpt lat="59.3130252" lon="18.4575322">
        <ele>1.57935</ele>
        <time>2011-06-01T16:55:06Z</time>
      </trkpt>
      <trkpt lat="59.3130248" lon="18.4576363">
        <ele>1.57935</ele>
        <time>2011-06-01T16:55:07Z</time>
      </trkpt>
      <trkpt lat="59.3130166" lon="18.4578373">
        <ele>1.57935</ele>
        <time>2011-06-01T16:55:09Z</time>
      </trkpt>
      <trkpt lat="59.3129358" lon="18.4582407">
        <ele>1.57935</ele>
        <time>2011-06-01T16:55:14Z</time>
      </trkpt>
      <trkpt lat="59.312904" lon="18.4583056">
        <ele>1.57935</ele>
        <time>2011-06-01T16:55:15Z</time>
      </trkpt>
      <trkpt lat="59.3126312" lon="18.4587657">
        <ele>2.54065</ele>
        <time>2011-06-01T16:55:22Z</time>
      </trkpt>
      <trkpt lat="59.3122505" lon="18.4592628">
        <ele>5.90527</ele>
        <time>2011-06-01T16:55:31Z</time>
      </trkpt>
      <trkpt lat="59.3119874" lon="18.4596027">
        <ele>8.30859</ele>
        <time>2011-06-01T16:55:38Z</time>
      </trkpt>
      <trkpt lat="59.3118102" lon="18.4598724">
        <ele>8.78918</ele>
        <time>2011-06-01T16:55:43Z</time>
      </trkpt>
      <trkpt lat="59.3116616" lon="18.460333">
        <ele>8.78918</ele>
        <time>2011-06-01T16:55:49Z</time>
      </trkpt>
      <trkpt lat="59.311535" lon="18.460809">
        <ele>8.78918</ele>
        <time>2011-06-01T16:55:54Z</time>
      </trkpt>
      <trkpt lat="59.3114672" lon="18.4610147">
        <ele>8.30859</ele>
        <time>2011-06-01T16:55:56Z</time>
      </trkpt>
      <trkpt lat="59.3113082" lon="18.4618036">
        <ele>5.42456</ele>
        <time>2011-06-01T16:56:01Z</time>
      </trkpt>
      <trkpt lat="59.3108917" lon="18.4630539">
        <ele>0</ele>
        <time>2011-06-01T16:56:09Z</time>
      </trkpt>
      <trkpt lat="59.3106394" lon="18.4638441">
        <ele>0</ele>
        <time>2011-06-01T16:56:14Z</time>
      </trkpt>
      <trkpt lat="59.3103521" lon="18.4648516">
        <ele>0</ele>
        <time>2011-06-01T16:56:21Z</time>
      </trkpt>
      <trkpt lat="59.310086" lon="18.4658997">
        <ele>0</ele>
        <time>2011-06-01T16:56:29Z</time>
      </trkpt>
      <trkpt lat="59.3099467" lon="18.4663947">
        <ele>1.57935</ele>
        <time>2011-06-01T16:56:34Z</time>
      </trkpt>
      <trkpt lat="59.3098863" lon="18.4669309">
        <ele>3.98267</ele>
        <time>2011-06-01T16:56:41Z</time>
      </trkpt>
      <trkpt lat="59.3098309" lon="18.4674598">
        <ele>4.46326</ele>
        <time>2011-06-01T16:56:47Z</time>
      </trkpt>
      <trkpt lat="59.3098174" lon="18.4675562">
        <ele>4.46326</ele>
        <time>2011-06-01T16:56:48Z</time>
      </trkpt>
      <trkpt lat="59.3096774" lon="18.4681125">
        <ele>4.46326</ele>
        <time>2011-06-01T16:56:54Z</time>
      </trkpt>
      <trkpt lat="59.3095496" lon="18.4684842">
        <ele>4.46326</ele>
        <time>2011-06-01T16:56:58Z</time>
      </trkpt>
      <trkpt lat="59.3092904" lon="18.4691406">
        <ele>3.50195</ele>
        <time>2011-06-01T16:57:05Z</time>
      </trkpt>
      <trkpt lat="59.3090049" lon="18.4696172">
        <ele>3.02124</ele>
        <time>2011-06-01T16:57:11Z</time>
      </trkpt>
      <trkpt lat="59.308671" lon="18.4702746">
        <ele>2.06006</ele>
        <time>2011-06-01T16:57:18Z</time>
      </trkpt>
      <trkpt lat="59.3083306" lon="18.4708761">
        <ele>2.06006</ele>
        <time>2011-06-01T16:57:24Z</time>
      </trkpt>
      <trkpt lat="59.3080772" lon="18.4712696">
        <ele>3.98267</ele>
        <time>2011-06-01T16:57:29Z</time>
      </trkpt>
      <trkpt lat="59.3078971" lon="18.4715165">
        <ele>5.42456</ele>
        <time>2011-06-01T16:57:33Z</time>
      </trkpt>
      <trkpt lat="59.3077055" lon="18.4716612">
        <ele>7.34717</ele>
        <time>2011-06-01T16:57:38Z</time>
      </trkpt>
      <trkpt lat="59.3076608" lon="18.4717894">
        <ele>7.82788</ele>
        <time>2011-06-01T16:57:40Z</time>
      </trkpt>
      <trkpt lat="59.3074686" lon="18.4721732">
        <ele>9.75061</ele>
        <time>2011-06-01T16:57:47Z</time>
      </trkpt>
      <trkpt lat="59.3072185" lon="18.4726295">
        <ele>10.2312</ele>
        <time>2011-06-01T16:57:54Z</time>
      </trkpt>
      <trkpt lat="59.3070719" lon="18.4729363">
        <ele>11.1925</ele>
        <time>2011-06-01T16:57:59Z</time>
      </trkpt>
      <trkpt lat="59.3068947" lon="18.4732645">
        <ele>9.75061</ele>
        <time>2011-06-01T16:58:04Z</time>
      </trkpt>
      <trkpt lat="59.3067927" lon="18.4734398">
        <ele>8.78918</ele>
        <time>2011-06-01T16:58:06Z</time>
      </trkpt>
      <trkpt lat="59.3065912" lon="18.4739858">
        <ele>8.78918</ele>
        <time>2011-06-01T16:58:11Z</time>
      </trkpt>
      <trkpt lat="59.3063235" lon="18.4750338">
        <ele>7.82788</ele>
        <time>2011-06-01T16:58:19Z</time>
      </trkpt>
      <trkpt lat="59.3060544" lon="18.4762466">
        <ele>5.90527</ele>
        <time>2011-06-01T16:58:27Z</time>
      </trkpt>
      <trkpt lat="59.3057641" lon="18.4776627">
        <ele>3.02124</ele>
        <time>2011-06-01T16:58:36Z</time>
      </trkpt>
      <trkpt lat="59.3055276" lon="18.4785188">
        <ele>2.54065</ele>
        <time>2011-06-01T16:58:42Z</time>
      </trkpt>
      <trkpt lat="59.3053946" lon="18.4794144">
        <ele>2.54065</ele>
        <time>2011-06-01T16:58:48Z</time>
      </trkpt>
      <trkpt lat="59.3052231" lon="18.48051">
        <ele>3.02124</ele>
        <time>2011-06-01T16:58:56Z</time>
      </trkpt>
      <trkpt lat="59.3051624" lon="18.4810674">
        <ele>4.94385</ele>
        <time>2011-06-01T16:59:01Z</time>
      </trkpt>
      <trkpt lat="59.3050569" lon="18.4818766">
        <ele>4.94385</ele>
        <time>2011-06-01T16:59:09Z</time>
      </trkpt>
      <trkpt lat="59.3048466" lon="18.4827016">
        <ele>2.06006</ele>
        <time>2011-06-01T16:59:16Z</time>
      </trkpt>
      <trkpt lat="59.3048394" lon="18.4832979">
        <ele>0.137451</ele>
        <time>2011-06-01T16:59:20Z</time>
      </trkpt>
      <trkpt lat="59.304898" lon="18.4837321">
        <ele>0.137451</ele>
        <time>2011-06-01T16:59:23Z</time>
      </trkpt>
      <trkpt lat="59.304903" lon="18.4843962">
        <ele>0.137451</ele>
        <time>2011-06-01T16:59:28Z</time>
      </trkpt>
      <trkpt lat="59.3048709" lon="18.4846346">
        <ele>0</ele>
        <time>2011-06-01T16:59:30Z</time>
      </trkpt>
      <trkpt lat="59.3048242" lon="18.4848515">
        <ele>0</ele>
        <time>2011-06-01T16:59:32Z</time>
      </trkpt>
      <trkpt lat="59.3048208" lon="18.4851561">
        <ele>0</ele>
        <time>2011-06-01T16:59:35Z</time>
      </trkpt>
      <trkpt lat="59.3047817" lon="18.4860688">
        <ele>0.137451</ele>
        <time>2011-06-01T16:59:43Z</time>
      </trkpt>
      <trkpt lat="59.3047663" lon="18.4865162">
        <ele>0.618042</ele>
        <time>2011-06-01T16:59:48Z</time>
      </trkpt>
      <trkpt lat="59.3047636" lon="18.4867724">
        <ele>1.09863</ele>
        <time>2011-06-01T16:59:53Z</time>
      </trkpt>
      <trkpt lat="59.3047448" lon="18.4871168">
        <ele>2.06006</ele>
        <time>2011-06-01T16:59:59Z</time>
      </trkpt>
      <trkpt lat="59.304754" lon="18.4875747">
        <ele>2.54065</ele>
        <time>2011-06-01T17:00:04Z</time>
      </trkpt>
      <trkpt lat="59.3047518" lon="18.4880155">
        <ele>2.54065</ele>
        <time>2011-06-01T17:00:08Z</time>
      </trkpt>
      <trkpt lat="59.3047277" lon="18.4886692">
        <ele>2.54065</ele>
        <time>2011-06-01T17:00:13Z</time>
      </trkpt>
      <trkpt lat="59.3047112" lon="18.4894569">
        <ele>1.09863</ele>
        <time>2011-06-01T17:00:19Z</time>
      </trkpt>
      <trkpt lat="59.3046478" lon="18.490255">
        <ele>0</ele>
        <time>2011-06-01T17:00:25Z</time>
      </trkpt>
      <trkpt lat="59.3045519" lon="18.4915887">
        <ele>0</ele>
        <time>2011-06-01T17:00:35Z</time>
      </trkpt>
      <trkpt lat="59.3044196" lon="18.4924792">
        <ele>0</ele>
        <time>2011-06-01T17:00:42Z</time>
      </trkpt>
      <trkpt lat="59.3042201" lon="18.4934257">
        <ele>0</ele>
        <time>2011-06-01T17:00:50Z</time>
      </trkpt>
      <trkpt lat="59.3040032" lon="18.4941564">
        <ele>0</ele>
        <time>2011-06-01T17:00:57Z</time>
      </trkpt>
      <trkpt lat="59.3037825" lon="18.4949097">
        <ele>0</ele>
        <time>2011-06-01T17:01:04Z</time>
      </trkpt>
      <trkpt lat="59.3036394" lon="18.4956384">
        <ele>0</ele>
        <time>2011-06-01T17:01:10Z</time>
      </trkpt>
      <trkpt lat="59.3035287" lon="18.4966058">
        <ele>0</ele>
        <time>2011-06-01T17:01:17Z</time>
      </trkpt>
      <trkpt lat="59.3033987" lon="18.497504">
        <ele>0</ele>
        <time>2011-06-01T17:01:24Z</time>
      </trkpt>
      <trkpt lat="59.3032718" lon="18.498384">
        <ele>0</ele>
        <time>2011-06-01T17:01:32Z</time>
      </trkpt>
      <trkpt lat="59.3031553" lon="18.4992813">
        <ele>2.06006</ele>
        <time>2011-06-01T17:01:41Z</time>
      </trkpt>
      <trkpt lat="59.303126" lon="18.4994766">
        <ele>3.02124</ele>
        <time>2011-06-01T17:01:43Z</time>
      </trkpt>
      <trkpt lat="59.3030267" lon="18.4999064">
        <ele>4.94385</ele>
        <time>2011-06-01T17:01:48Z</time>
      </trkpt>
      <trkpt lat="59.302979" lon="18.5002592">
        <ele>6.38586</ele>
        <time>2011-06-01T17:01:52Z</time>
      </trkpt>
      <trkpt lat="59.3029303" lon="18.5005573">
        <ele>7.34717</ele>
        <time>2011-06-01T17:01:56Z</time>
      </trkpt>
      <trkpt lat="59.30282" lon="18.5013528">
        <ele>9.75061</ele>
        <time>2011-06-01T17:02:06Z</time>
      </trkpt>
      <trkpt lat="59.3028113" lon="18.5014326">
        <ele>9.75061</ele>
        <time>2011-06-01T17:02:07Z</time>
      </trkpt>
      <trkpt lat="59.3027809" lon="18.5017762">
        <ele>10.2312</ele>
        <time>2011-06-01T17:02:13Z</time>
      </trkpt>
      <trkpt lat="59.3027299" lon="18.5020328">
        <ele>10.2312</ele>
        <time>2011-06-01T17:02:18Z</time>
      </trkpt>
      <trkpt lat="59.3027112" lon="18.5020679">
        <ele>10.2312</ele>
        <time>2011-06-01T17:02:19Z</time>
      </trkpt>
      <trkpt lat="59.3025757" lon="18.5019862">
        <ele>10.2312</ele>
        <time>2011-06-01T17:02:24Z</time>
      </trkpt>
      <trkpt lat="59.3024307" lon="18.5015669">
        <ele>10.2312</ele>
        <time>2011-06-01T17:02:30Z</time>
      </trkpt>
      <trkpt lat="59.3022762" lon="18.5009491">
        <ele>12.6344</ele>
        <time>2011-06-01T17:02:38Z</time>
      </trkpt>
      <trkpt lat="59.3021453" lon="18.5004365">
        <ele>15.5184</ele>
        <time>2011-06-01T17:02:45Z</time>
      </trkpt>
      <trkpt lat="59.3019798" lon="18.4998803">
        <ele>18.8831</ele>
        <time>2011-06-01T17:02:53Z</time>
      </trkpt>
      <trkpt lat="59.3018473" lon="18.4993153">
        <ele>21.2864</ele>
        <time>2011-06-01T17:03:01Z</time>
      </trkpt>
      <trkpt lat="59.3017831" lon="18.4988467">
        <ele>24.1703</ele>
        <time>2011-06-01T17:03:08Z</time>
      </trkpt>
      <trkpt lat="59.3017162" lon="18.4983644">
        <ele>25.6123</ele>
        <time>2011-06-01T17:03:15Z</time>
      </trkpt>
      <trkpt lat="59.3015857" lon="18.4979051">
        <ele>26.0929</ele>
        <time>2011-06-01T17:03:22Z</time>
      </trkpt>
      <trkpt lat="59.3014563" lon="18.4975381">
        <ele>26.0929</ele>
        <time>2011-06-01T17:03:28Z</time>
      </trkpt>
      <trkpt lat="59.3013539" lon="18.4975713">
        <ele>26.5736</ele>
        <time>2011-06-01T17:03:32Z</time>
      </trkpt>
      <trkpt lat="59.3011532" lon="18.4978929">
        <ele>28.9769</ele>
        <time>2011-06-01T17:03:40Z</time>
      </trkpt>
      <trkpt lat="59.3010641" lon="18.4981151">
        <ele>29.9381</ele>
        <time>2011-06-01T17:03:45Z</time>
      </trkpt>
      <trkpt lat="59.3009585" lon="18.4985295">
        <ele>28.9769</ele>
        <time>2011-06-01T17:03:51Z</time>
      </trkpt>
      <trkpt lat="59.3008771" lon="18.4990429">
        <ele>30.8995</ele>
        <time>2011-06-01T17:03:59Z</time>
      </trkpt>
      <trkpt lat="59.3007906" lon="18.4995055">
        <ele>32.3416</ele>
        <time>2011-06-01T17:04:07Z</time>
      </trkpt>
      <trkpt lat="59.3007184" lon="18.4998878">
        <ele>33.3029</ele>
        <time>2011-06-01T17:04:13Z</time>
      </trkpt>
      <trkpt lat="59.3006259" lon="18.5003575">
        <ele>32.3416</ele>
        <time>2011-06-01T17:04:20Z</time>
      </trkpt>
      <trkpt lat="59.3005329" lon="18.5008383">
        <ele>30.8995</ele>
        <time>2011-06-01T17:04:25Z</time>
      </trkpt>
      <trkpt lat="59.3003787" lon="18.5016454">
        <ele>29.9381</ele>
        <time>2011-06-01T17:04:33Z</time>
      </trkpt>
      <trkpt lat="59.3002295" lon="18.5024131">
        <ele>29.9381</ele>
        <time>2011-06-01T17:04:41Z</time>
      </trkpt>
      <trkpt lat="59.3001705" lon="18.5026623">
        <ele>29.9381</ele>
        <time>2011-06-01T17:04:44Z</time>
      </trkpt>
      <trkpt lat="59.300013" lon="18.5031564">
        <ele>29.9381</ele>
        <time>2011-06-01T17:04:51Z</time>
      </trkpt>
      <trkpt lat="59.2998493" lon="18.503661">
        <ele>29.4575</ele>
        <time>2011-06-01T17:04:57Z</time>
      </trkpt>
      <trkpt lat="59.2996768" lon="18.5043176">
        <ele>28.4962</ele>
        <time>2011-06-01T17:05:03Z</time>
      </trkpt>
      <trkpt lat="59.2994891" lon="18.5049426">
        <ele>25.6123</ele>
        <time>2011-06-01T17:05:09Z</time>
      </trkpt>
      <trkpt lat="59.2992661" lon="18.505205">
        <ele>24.1703</ele>
        <time>2011-06-01T17:05:13Z</time>
      </trkpt>
      <trkpt lat="59.299128" lon="18.5054425">
        <ele>23.209</ele>
        <time>2011-06-01T17:05:17Z</time>
      </trkpt>
      <trkpt lat="59.2991444" lon="18.5057838">
        <ele>23.209</ele>
        <time>2011-06-01T17:05:21Z</time>
      </trkpt>
      <trkpt lat="59.2991659" lon="18.5059712">
        <ele>23.209</ele>
        <time>2011-06-01T17:05:23Z</time>
      </trkpt>
      <trkpt lat="59.2992684" lon="18.5066183">
        <ele>23.209</ele>
        <time>2011-06-01T17:05:29Z</time>
      </trkpt>
      <trkpt lat="59.2993262" lon="18.5071703">
        <ele>22.7283</ele>
        <time>2011-06-01T17:05:34Z</time>
      </trkpt>
      <trkpt lat="59.2993084" lon="18.5074227">
        <ele>21.767</ele>
        <time>2011-06-01T17:05:38Z</time>
      </trkpt>
    </trkseg>
  </trk>
</gpx>